<?xml version="1.0" encoding="UTF-8" standalone="no" ?>
<gpx xmlns="http://www.topografix.com/GPX/1/1" xmlns:xsi="http://www.w3.org/2001/XMLSchema-instance" xsi:schemaLocation="http://www.topografix.com/GPX/1/1 http://www.topografix.com/GPX/1/1/gpx.xsd" version="1.1" creator="VisuGPX - https://www.visugpx.com">
  <metadata>
    <name>fesches le chatel/courtefontaine</name>
    <desc><![CDATA[voyage fesches le chatel/courtefontaine]]></desc>
  </metadata>
  <trk>
    <name><![CDATA[fesches le chatel/courtefontaine_1]]></name>
    <trkseg>
      <trkpt lat="47.52375" lon="6.91529">
        <ele>346</ele>
        <time>2015-08-15T07:24:14Z</time>
      </trkpt>
      <trkpt lat="47.52375" lon="6.91529">
        <ele>394.387</ele>
        <time>2015-08-15T07:24:19Z</time>
      </trkpt>
      <trkpt lat="47.52361" lon="6.9149">
        <ele>406.597</ele>
        <time>2015-08-15T07:26:07Z</time>
      </trkpt>
      <trkpt lat="47.52335" lon="6.91473">
        <ele>399.26</ele>
        <time>2015-08-15T07:26:14Z</time>
      </trkpt>
      <trkpt lat="47.52312" lon="6.91448">
        <ele>397.622</ele>
        <time>2015-08-15T07:26:20Z</time>
      </trkpt>
      <trkpt lat="47.52291" lon="6.91417">
        <ele>394.21</ele>
        <time>2015-08-15T07:26:25Z</time>
      </trkpt>
      <trkpt lat="47.52275" lon="6.91393">
        <ele>391.733</ele>
        <time>2015-08-15T07:26:28Z</time>
      </trkpt>
      <trkpt lat="47.52248" lon="6.91353">
        <ele>387.535</ele>
        <time>2015-08-15T07:26:33Z</time>
      </trkpt>
      <trkpt lat="47.52242" lon="6.91303">
        <ele>384.163</ele>
        <time>2015-08-15T07:26:40Z</time>
      </trkpt>
      <trkpt lat="47.52214" lon="6.91314">
        <ele>383.142</ele>
        <time>2015-08-15T07:26:45Z</time>
      </trkpt>
      <trkpt lat="47.52195" lon="6.91334">
        <ele>383.747</ele>
        <time>2015-08-15T07:26:48Z</time>
      </trkpt>
      <trkpt lat="47.52159" lon="6.91366">
        <ele>392.935</ele>
        <time>2015-08-15T07:26:54Z</time>
      </trkpt>
      <trkpt lat="47.52133" lon="6.91402">
        <ele>393.017</ele>
        <time>2015-08-15T07:27:00Z</time>
      </trkpt>
      <trkpt lat="47.5212" lon="6.91419">
        <ele>388.545</ele>
        <time>2015-08-15T07:27:03Z</time>
      </trkpt>
      <trkpt lat="47.52102" lon="6.91447">
        <ele>387.096</ele>
        <time>2015-08-15T07:27:09Z</time>
      </trkpt>
      <trkpt lat="47.52083" lon="6.91434">
        <ele>389.801</ele>
        <time>2015-08-15T07:27:14Z</time>
      </trkpt>
      <trkpt lat="47.52067" lon="6.91424">
        <ele>390.771</ele>
        <time>2015-08-15T07:27:20Z</time>
      </trkpt>
      <trkpt lat="47.52031" lon="6.91425">
        <ele>394.508</ele>
        <time>2015-08-15T07:27:30Z</time>
      </trkpt>
      <trkpt lat="47.52009" lon="6.91427">
        <ele>394.906</ele>
        <time>2015-08-15T07:27:36Z</time>
      </trkpt>
      <trkpt lat="47.5198" lon="6.91425">
        <ele>398.537</ele>
        <time>2015-08-15T07:27:43Z</time>
      </trkpt>
      <trkpt lat="47.51959" lon="6.91426">
        <ele>399.263</ele>
        <time>2015-08-15T07:27:49Z</time>
      </trkpt>
      <trkpt lat="47.51939" lon="6.91429">
        <ele>401.867</ele>
        <time>2015-08-15T07:27:54Z</time>
      </trkpt>
      <trkpt lat="47.51904" lon="6.9143">
        <ele>401.395</ele>
        <time>2015-08-15T07:28:00Z</time>
      </trkpt>
      <trkpt lat="47.51884" lon="6.91432">
        <ele>401.302</ele>
        <time>2015-08-15T07:28:05Z</time>
      </trkpt>
      <trkpt lat="47.51865" lon="6.9143">
        <ele>401.593</ele>
        <time>2015-08-15T07:28:10Z</time>
      </trkpt>
      <trkpt lat="47.51839" lon="6.91429">
        <ele>405.159</ele>
        <time>2015-08-15T07:28:17Z</time>
      </trkpt>
      <trkpt lat="47.51811" lon="6.91422">
        <ele>407.509</ele>
        <time>2015-08-15T07:28:23Z</time>
      </trkpt>
      <trkpt lat="47.51785" lon="6.91415">
        <ele>406.465</ele>
        <time>2015-08-15T07:28:28Z</time>
      </trkpt>
      <trkpt lat="47.51759" lon="6.91417">
        <ele>403.658</ele>
        <time>2015-08-15T07:28:35Z</time>
      </trkpt>
      <trkpt lat="47.51737" lon="6.91426">
        <ele>402.663</ele>
        <time>2015-08-15T07:28:41Z</time>
      </trkpt>
      <trkpt lat="47.51712" lon="6.91423">
        <ele>402.388</ele>
        <time>2015-08-15T07:28:47Z</time>
      </trkpt>
      <trkpt lat="47.51698" lon="6.91418">
        <ele>402.46</ele>
        <time>2015-08-15T07:28:50Z</time>
      </trkpt>
      <trkpt lat="47.51678" lon="6.9142">
        <ele>402.391</ele>
        <time>2015-08-15T07:28:55Z</time>
      </trkpt>
      <trkpt lat="47.51647" lon="6.91418">
        <ele>405.269</ele>
        <time>2015-08-15T07:29:01Z</time>
      </trkpt>
      <trkpt lat="47.51618" lon="6.91404">
        <ele>402.149</ele>
        <time>2015-08-15T07:29:07Z</time>
      </trkpt>
      <trkpt lat="47.51581" lon="6.91391">
        <ele>400.552</ele>
        <time>2015-08-15T07:29:15Z</time>
      </trkpt>
      <trkpt lat="47.51553" lon="6.91383">
        <ele>398.972</ele>
        <time>2015-08-15T07:29:20Z</time>
      </trkpt>
      <trkpt lat="47.51523" lon="6.91371">
        <ele>401.581</ele>
        <time>2015-08-15T07:29:26Z</time>
      </trkpt>
      <trkpt lat="47.51491" lon="6.9135">
        <ele>401.921</ele>
        <time>2015-08-15T07:29:32Z</time>
      </trkpt>
      <trkpt lat="47.51468" lon="6.91334">
        <ele>403.381</ele>
        <time>2015-08-15T07:29:38Z</time>
      </trkpt>
      <trkpt lat="47.51447" lon="6.91321">
        <ele>404.168</ele>
        <time>2015-08-15T07:29:43Z</time>
      </trkpt>
      <trkpt lat="47.51422" lon="6.91309">
        <ele>408.296</ele>
        <time>2015-08-15T07:29:48Z</time>
      </trkpt>
      <trkpt lat="47.51394" lon="6.91294">
        <ele>409.773</ele>
        <time>2015-08-15T07:29:54Z</time>
      </trkpt>
      <trkpt lat="47.51373" lon="6.91283">
        <ele>410.933</ele>
        <time>2015-08-15T07:29:59Z</time>
      </trkpt>
      <trkpt lat="47.51362" lon="6.91277">
        <ele>410.556</ele>
        <time>2015-08-15T07:30:02Z</time>
      </trkpt>
      <trkpt lat="47.51344" lon="6.91267">
        <ele>411.15</ele>
        <time>2015-08-15T07:30:06Z</time>
      </trkpt>
      <trkpt lat="47.51312" lon="6.91252">
        <ele>410.597</ele>
        <time>2015-08-15T07:30:13Z</time>
      </trkpt>
      <trkpt lat="47.51286" lon="6.91244">
        <ele>412.799</ele>
        <time>2015-08-15T07:30:18Z</time>
      </trkpt>
      <trkpt lat="47.51251" lon="6.91235">
        <ele>413.207</ele>
        <time>2015-08-15T07:30:25Z</time>
      </trkpt>
      <trkpt lat="47.51218" lon="6.9123">
        <ele>416.756</ele>
        <time>2015-08-15T07:30:32Z</time>
      </trkpt>
      <trkpt lat="47.51194" lon="6.9123">
        <ele>420.126</ele>
        <time>2015-08-15T07:30:37Z</time>
      </trkpt>
      <trkpt lat="47.51174" lon="6.91231">
        <ele>416.994</ele>
        <time>2015-08-15T07:30:42Z</time>
      </trkpt>
      <trkpt lat="47.51145" lon="6.91239">
        <ele>416.009</ele>
        <time>2015-08-15T07:30:48Z</time>
      </trkpt>
      <trkpt lat="47.51118" lon="6.91245">
        <ele>419.366</ele>
        <time>2015-08-15T07:30:53Z</time>
      </trkpt>
      <trkpt lat="47.51089" lon="6.91246">
        <ele>422.16</ele>
        <time>2015-08-15T07:30:59Z</time>
      </trkpt>
      <trkpt lat="47.51068" lon="6.9125">
        <ele>422.111</ele>
        <time>2015-08-15T07:31:04Z</time>
      </trkpt>
      <trkpt lat="47.51038" lon="6.91255">
        <ele>418.705</ele>
        <time>2015-08-15T07:31:11Z</time>
      </trkpt>
      <trkpt lat="47.51014" lon="6.91264">
        <ele>418.308</ele>
        <time>2015-08-15T07:31:16Z</time>
      </trkpt>
      <trkpt lat="47.50993" lon="6.91272">
        <ele>419.749</ele>
        <time>2015-08-15T07:31:21Z</time>
      </trkpt>
      <trkpt lat="47.50972" lon="6.91292">
        <ele>421.861</ele>
        <time>2015-08-15T07:31:27Z</time>
      </trkpt>
      <trkpt lat="47.50935" lon="6.91301">
        <ele>421.874</ele>
        <time>2015-08-15T07:31:33Z</time>
      </trkpt>
      <trkpt lat="47.50918" lon="6.91295">
        <ele>420.193</ele>
        <time>2015-08-15T07:31:38Z</time>
      </trkpt>
      <trkpt lat="47.50874" lon="6.91284">
        <ele>414.103</ele>
        <time>2015-08-15T07:31:47Z</time>
      </trkpt>
      <trkpt lat="47.50851" lon="6.91288">
        <ele>414.853</ele>
        <time>2015-08-15T07:31:52Z</time>
      </trkpt>
      <trkpt lat="47.50826" lon="6.91296">
        <ele>415.636</ele>
        <time>2015-08-15T07:31:58Z</time>
      </trkpt>
      <trkpt lat="47.5081" lon="6.913">
        <ele>414.639</ele>
        <time>2015-08-15T07:32:01Z</time>
      </trkpt>
      <trkpt lat="47.50775" lon="6.91306">
        <ele>417.308</ele>
        <time>2015-08-15T07:32:07Z</time>
      </trkpt>
      <trkpt lat="47.50742" lon="6.91308">
        <ele>415.172</ele>
        <time>2015-08-15T07:32:13Z</time>
      </trkpt>
      <trkpt lat="47.50723" lon="6.91307">
        <ele>414.521</ele>
        <time>2015-08-15T07:32:16Z</time>
      </trkpt>
      <trkpt lat="47.5069" lon="6.91294">
        <ele>416.27</ele>
        <time>2015-08-15T07:32:22Z</time>
      </trkpt>
      <trkpt lat="47.50661" lon="6.91278">
        <ele>417.39</ele>
        <time>2015-08-15T07:32:27Z</time>
      </trkpt>
      <trkpt lat="47.50629" lon="6.91268">
        <ele>415.362</ele>
        <time>2015-08-15T07:32:33Z</time>
      </trkpt>
      <trkpt lat="47.50613" lon="6.91279">
        <ele>417.359</ele>
        <time>2015-08-15T07:32:38Z</time>
      </trkpt>
      <trkpt lat="47.50607" lon="6.91302">
        <ele>420.472</ele>
        <time>2015-08-15T07:32:41Z</time>
      </trkpt>
      <trkpt lat="47.50596" lon="6.91344">
        <ele>422.683</ele>
        <time>2015-08-15T07:32:47Z</time>
      </trkpt>
      <trkpt lat="47.50568" lon="6.91337">
        <ele>420.716</ele>
        <time>2015-08-15T07:32:54Z</time>
      </trkpt>
      <trkpt lat="47.50532" lon="6.91316">
        <ele>421.63</ele>
        <time>2015-08-15T07:33:01Z</time>
      </trkpt>
      <trkpt lat="47.50506" lon="6.91319">
        <ele>427.424</ele>
        <time>2015-08-15T07:33:07Z</time>
      </trkpt>
      <trkpt lat="47.50492" lon="6.91323">
        <ele>427.932</ele>
        <time>2015-08-15T07:33:10Z</time>
      </trkpt>
      <trkpt lat="47.50469" lon="6.9133">
        <ele>424.345</ele>
        <time>2015-08-15T07:33:16Z</time>
      </trkpt>
      <trkpt lat="47.5044" lon="6.91335">
        <ele>425.65</ele>
        <time>2015-08-15T07:33:22Z</time>
      </trkpt>
      <trkpt lat="47.50412" lon="6.91343">
        <ele>424.391</ele>
        <time>2015-08-15T07:33:28Z</time>
      </trkpt>
      <trkpt lat="47.50396" lon="6.91352">
        <ele>423.035</ele>
        <time>2015-08-15T07:33:33Z</time>
      </trkpt>
      <trkpt lat="47.50365" lon="6.91359">
        <ele>422.375</ele>
        <time>2015-08-15T07:33:40Z</time>
      </trkpt>
      <trkpt lat="47.5034" lon="6.9136">
        <ele>423.29</ele>
        <time>2015-08-15T07:33:46Z</time>
      </trkpt>
      <trkpt lat="47.50324" lon="6.91359">
        <ele>424.561</ele>
        <time>2015-08-15T07:33:49Z</time>
      </trkpt>
      <trkpt lat="47.50295" lon="6.91364">
        <ele>423.375</ele>
        <time>2015-08-15T07:33:55Z</time>
      </trkpt>
      <trkpt lat="47.5027" lon="6.9138">
        <ele>419.845</ele>
        <time>2015-08-15T07:34:01Z</time>
      </trkpt>
      <trkpt lat="47.50247" lon="6.9139">
        <ele>417.518</ele>
        <time>2015-08-15T07:34:07Z</time>
      </trkpt>
      <trkpt lat="47.50222" lon="6.91385">
        <ele>416.786</ele>
        <time>2015-08-15T07:34:12Z</time>
      </trkpt>
      <trkpt lat="47.50206" lon="6.91383">
        <ele>418.765</ele>
        <time>2015-08-15T07:34:15Z</time>
      </trkpt>
      <trkpt lat="47.50191" lon="6.91383">
        <ele>418.971</ele>
        <time>2015-08-15T07:34:18Z</time>
      </trkpt>
      <trkpt lat="47.50161" lon="6.91376">
        <ele>417.874</ele>
        <time>2015-08-15T07:34:26Z</time>
      </trkpt>
      <trkpt lat="47.50138" lon="6.9137">
        <ele>418.035</ele>
        <time>2015-08-15T07:34:32Z</time>
      </trkpt>
      <trkpt lat="47.50111" lon="6.91362">
        <ele>419.123</ele>
        <time>2015-08-15T07:34:41Z</time>
      </trkpt>
      <trkpt lat="47.50078" lon="6.91364">
        <ele>419.92</ele>
        <time>2015-08-15T07:34:51Z</time>
      </trkpt>
      <trkpt lat="47.50047" lon="6.91343">
        <ele>425.243</ele>
        <time>2015-08-15T07:34:59Z</time>
      </trkpt>
      <trkpt lat="47.5002" lon="6.91327">
        <ele>425.301</ele>
        <time>2015-08-15T07:35:07Z</time>
      </trkpt>
      <trkpt lat="47.50001" lon="6.91314">
        <ele>426.171</ele>
        <time>2015-08-15T07:35:12Z</time>
      </trkpt>
      <trkpt lat="47.49978" lon="6.91303">
        <ele>433.069</ele>
        <time>2015-08-15T07:35:18Z</time>
      </trkpt>
      <trkpt lat="47.49963" lon="6.91291">
        <ele>431.606</ele>
        <time>2015-08-15T07:35:22Z</time>
      </trkpt>
      <trkpt lat="47.49939" lon="6.91273">
        <ele>431.348</ele>
        <time>2015-08-15T07:35:28Z</time>
      </trkpt>
      <trkpt lat="47.4992" lon="6.91258">
        <ele>430.131</ele>
        <time>2015-08-15T07:35:33Z</time>
      </trkpt>
      <trkpt lat="47.49898" lon="6.91238">
        <ele>425.036</ele>
        <time>2015-08-15T07:35:39Z</time>
      </trkpt>
      <trkpt lat="47.49874" lon="6.91217">
        <ele>426.31</ele>
        <time>2015-08-15T07:35:45Z</time>
      </trkpt>
      <trkpt lat="47.49853" lon="6.91192">
        <ele>425.923</ele>
        <time>2015-08-15T07:35:52Z</time>
      </trkpt>
      <trkpt lat="47.49824" lon="6.91155">
        <ele>428.964</ele>
        <time>2015-08-15T07:35:59Z</time>
      </trkpt>
      <trkpt lat="47.49805" lon="6.91133">
        <ele>426.21</ele>
        <time>2015-08-15T07:36:04Z</time>
      </trkpt>
      <trkpt lat="47.49784" lon="6.91106">
        <ele>427.217</ele>
        <time>2015-08-15T07:36:10Z</time>
      </trkpt>
      <trkpt lat="47.49763" lon="6.91081">
        <ele>427.537</ele>
        <time>2015-08-15T07:36:16Z</time>
      </trkpt>
      <trkpt lat="47.49744" lon="6.91062">
        <ele>426.046</ele>
        <time>2015-08-15T07:36:22Z</time>
      </trkpt>
      <trkpt lat="47.49693" lon="6.91011">
        <ele>432.695</ele>
        <time>2015-08-15T07:36:34Z</time>
      </trkpt>
      <trkpt lat="47.49673" lon="6.90989">
        <ele>436.119</ele>
        <time>2015-08-15T07:36:40Z</time>
      </trkpt>
      <trkpt lat="47.49652" lon="6.90967">
        <ele>439.933</ele>
        <time>2015-08-15T07:36:45Z</time>
      </trkpt>
      <trkpt lat="47.49639" lon="6.90946">
        <ele>438.798</ele>
        <time>2015-08-15T07:36:50Z</time>
      </trkpt>
      <trkpt lat="47.49622" lon="6.90924">
        <ele>435.058</ele>
        <time>2015-08-15T07:36:54Z</time>
      </trkpt>
      <trkpt lat="47.49599" lon="6.90893">
        <ele>432.915</ele>
        <time>2015-08-15T07:37:00Z</time>
      </trkpt>
      <trkpt lat="47.49577" lon="6.90852">
        <ele>436.213</ele>
        <time>2015-08-15T07:37:07Z</time>
      </trkpt>
      <trkpt lat="47.49555" lon="6.9082">
        <ele>432.435</ele>
        <time>2015-08-15T07:37:13Z</time>
      </trkpt>
      <trkpt lat="47.49527" lon="6.90786">
        <ele>433.747</ele>
        <time>2015-08-15T07:37:20Z</time>
      </trkpt>
      <trkpt lat="47.49501" lon="6.90756">
        <ele>436.025</ele>
        <time>2015-08-15T07:37:25Z</time>
      </trkpt>
      <trkpt lat="47.4948" lon="6.90744">
        <ele>438.751</ele>
        <time>2015-08-15T07:37:32Z</time>
      </trkpt>
      <trkpt lat="47.49473" lon="6.9078">
        <ele>438.58</ele>
        <time>2015-08-15T07:37:40Z</time>
      </trkpt>
      <trkpt lat="47.49462" lon="6.90808">
        <ele>439.204</ele>
        <time>2015-08-15T07:37:47Z</time>
      </trkpt>
      <trkpt lat="47.49452" lon="6.90822">
        <ele>440.025</ele>
        <time>2015-08-15T07:37:53Z</time>
      </trkpt>
      <trkpt lat="47.49434" lon="6.90847">
        <ele>441.114</ele>
        <time>2015-08-15T07:38:02Z</time>
      </trkpt>
      <trkpt lat="47.49427" lon="6.90888">
        <ele>443.65</ele>
        <time>2015-08-15T07:38:10Z</time>
      </trkpt>
      <trkpt lat="47.4942" lon="6.90939">
        <ele>452.316</ele>
        <time>2015-08-15T07:38:17Z</time>
      </trkpt>
      <trkpt lat="47.49412" lon="6.90983">
        <ele>452.371</ele>
        <time>2015-08-15T07:38:23Z</time>
      </trkpt>
      <trkpt lat="47.49405" lon="6.9103">
        <ele>447.853</ele>
        <time>2015-08-15T07:38:29Z</time>
      </trkpt>
      <trkpt lat="47.49401" lon="6.9107">
        <ele>446.378</ele>
        <time>2015-08-15T07:38:35Z</time>
      </trkpt>
      <trkpt lat="47.49393" lon="6.91112">
        <ele>442.256</ele>
        <time>2015-08-15T07:38:41Z</time>
      </trkpt>
      <trkpt lat="47.49391" lon="6.91153">
        <ele>443.804</ele>
        <time>2015-08-15T07:38:47Z</time>
      </trkpt>
      <trkpt lat="47.49385" lon="6.91186">
        <ele>445.711</ele>
        <time>2015-08-15T07:38:52Z</time>
      </trkpt>
      <trkpt lat="47.4938" lon="6.91205">
        <ele>448.526</ele>
        <time>2015-08-15T07:38:55Z</time>
      </trkpt>
      <trkpt lat="47.49374" lon="6.91233">
        <ele>451.541</ele>
        <time>2015-08-15T07:38:59Z</time>
      </trkpt>
      <trkpt lat="47.49366" lon="6.91265">
        <ele>453.531</ele>
        <time>2015-08-15T07:39:05Z</time>
      </trkpt>
      <trkpt lat="47.49354" lon="6.91301">
        <ele>450.635</ele>
        <time>2015-08-15T07:39:12Z</time>
      </trkpt>
      <trkpt lat="47.49342" lon="6.91327">
        <ele>449.04</ele>
        <time>2015-08-15T07:39:17Z</time>
      </trkpt>
      <trkpt lat="47.49325" lon="6.91354">
        <ele>447.681</ele>
        <time>2015-08-15T07:39:23Z</time>
      </trkpt>
      <trkpt lat="47.4931" lon="6.91375">
        <ele>449.458</ele>
        <time>2015-08-15T07:39:28Z</time>
      </trkpt>
      <trkpt lat="47.49289" lon="6.91397">
        <ele>448.946</ele>
        <time>2015-08-15T07:39:34Z</time>
      </trkpt>
      <trkpt lat="47.49269" lon="6.91414">
        <ele>446.94</ele>
        <time>2015-08-15T07:39:40Z</time>
      </trkpt>
      <trkpt lat="47.49248" lon="6.91426">
        <ele>443.095</ele>
        <time>2015-08-15T07:39:47Z</time>
      </trkpt>
      <trkpt lat="47.49236" lon="6.91431">
        <ele>442.822</ele>
        <time>2015-08-15T07:39:50Z</time>
      </trkpt>
      <trkpt lat="47.49226" lon="6.91434">
        <ele>442.902</ele>
        <time>2015-08-15T07:39:53Z</time>
      </trkpt>
      <trkpt lat="47.49215" lon="6.91439">
        <ele>444.212</ele>
        <time>2015-08-15T07:39:56Z</time>
      </trkpt>
      <trkpt lat="47.49185" lon="6.9144">
        <ele>448.238</ele>
        <time>2015-08-15T07:40:03Z</time>
      </trkpt>
      <trkpt lat="47.49166" lon="6.91453">
        <ele>448.159</ele>
        <time>2015-08-15T07:40:08Z</time>
      </trkpt>
      <trkpt lat="47.49143" lon="6.91478">
        <ele>450.736</ele>
        <time>2015-08-15T07:40:14Z</time>
      </trkpt>
      <trkpt lat="47.49122" lon="6.91511">
        <ele>450.937</ele>
        <time>2015-08-15T07:40:21Z</time>
      </trkpt>
      <trkpt lat="47.49103" lon="6.91536">
        <ele>450.737</ele>
        <time>2015-08-15T07:40:28Z</time>
      </trkpt>
      <trkpt lat="47.49088" lon="6.91559">
        <ele>451.849</ele>
        <time>2015-08-15T07:40:34Z</time>
      </trkpt>
      <trkpt lat="47.49071" lon="6.91588">
        <ele>452.57</ele>
        <time>2015-08-15T07:40:40Z</time>
      </trkpt>
      <trkpt lat="47.49058" lon="6.91614">
        <ele>449.897</ele>
        <time>2015-08-15T07:40:46Z</time>
      </trkpt>
      <trkpt lat="47.49043" lon="6.91641">
        <ele>448.776</ele>
        <time>2015-08-15T07:40:52Z</time>
      </trkpt>
      <trkpt lat="47.49031" lon="6.91655">
        <ele>449.279</ele>
        <time>2015-08-15T07:40:57Z</time>
      </trkpt>
      <trkpt lat="47.49014" lon="6.91685">
        <ele>450.648</ele>
        <time>2015-08-15T07:41:04Z</time>
      </trkpt>
      <trkpt lat="47.49" lon="6.91712">
        <ele>452.19</ele>
        <time>2015-08-15T07:41:10Z</time>
      </trkpt>
      <trkpt lat="47.4898" lon="6.91746">
        <ele>455.436</ele>
        <time>2015-08-15T07:41:17Z</time>
      </trkpt>
      <trkpt lat="47.48971" lon="6.9177">
        <ele>457.057</ele>
        <time>2015-08-15T07:41:22Z</time>
      </trkpt>
      <trkpt lat="47.48961" lon="6.91799">
        <ele>458.23</ele>
        <time>2015-08-15T07:41:28Z</time>
      </trkpt>
      <trkpt lat="47.48948" lon="6.91847">
        <ele>462.766</ele>
        <time>2015-08-15T07:41:36Z</time>
      </trkpt>
      <trkpt lat="47.48937" lon="6.91872">
        <ele>463.771</ele>
        <time>2015-08-15T07:41:41Z</time>
      </trkpt>
      <trkpt lat="47.48928" lon="6.91897">
        <ele>463.794</ele>
        <time>2015-08-15T07:41:46Z</time>
      </trkpt>
      <trkpt lat="47.48909" lon="6.91943">
        <ele>464.466</ele>
        <time>2015-08-15T07:41:55Z</time>
      </trkpt>
      <trkpt lat="47.48897" lon="6.91975">
        <ele>469.53</ele>
        <time>2015-08-15T07:42:02Z</time>
      </trkpt>
      <trkpt lat="47.48886" lon="6.92008">
        <ele>469.787</ele>
        <time>2015-08-15T07:42:08Z</time>
      </trkpt>
      <trkpt lat="47.48877" lon="6.92042">
        <ele>469.146</ele>
        <time>2015-08-15T07:42:14Z</time>
      </trkpt>
      <trkpt lat="47.48868" lon="6.92067">
        <ele>472.312</ele>
        <time>2015-08-15T07:42:19Z</time>
      </trkpt>
      <trkpt lat="47.48851" lon="6.92104">
        <ele>471.658</ele>
        <time>2015-08-15T07:42:26Z</time>
      </trkpt>
      <trkpt lat="47.48838" lon="6.92127">
        <ele>468.623</ele>
        <time>2015-08-15T07:42:31Z</time>
      </trkpt>
      <trkpt lat="47.4883" lon="6.92144">
        <ele>468.532</ele>
        <time>2015-08-15T07:42:34Z</time>
      </trkpt>
      <trkpt lat="47.48821" lon="6.92163">
        <ele>469.217</ele>
        <time>2015-08-15T07:42:37Z</time>
      </trkpt>
      <trkpt lat="47.48813" lon="6.9218">
        <ele>469.219</ele>
        <time>2015-08-15T07:42:40Z</time>
      </trkpt>
      <trkpt lat="47.48801" lon="6.9221">
        <ele>470.465</ele>
        <time>2015-08-15T07:42:46Z</time>
      </trkpt>
      <trkpt lat="47.4879" lon="6.92239">
        <ele>473.219</ele>
        <time>2015-08-15T07:42:51Z</time>
      </trkpt>
      <trkpt lat="47.48778" lon="6.92269">
        <ele>476.875</ele>
        <time>2015-08-15T07:42:57Z</time>
      </trkpt>
      <trkpt lat="47.48768" lon="6.92299">
        <ele>477.709</ele>
        <time>2015-08-15T07:43:03Z</time>
      </trkpt>
      <trkpt lat="47.48753" lon="6.92332">
        <ele>478.567</ele>
        <time>2015-08-15T07:43:09Z</time>
      </trkpt>
      <trkpt lat="47.48734" lon="6.9236">
        <ele>478.268</ele>
        <time>2015-08-15T07:43:14Z</time>
      </trkpt>
      <trkpt lat="47.48709" lon="6.92388">
        <ele>472.91</ele>
        <time>2015-08-15T07:43:20Z</time>
      </trkpt>
      <trkpt lat="47.48687" lon="6.92401">
        <ele>467.572</ele>
        <time>2015-08-15T07:43:25Z</time>
      </trkpt>
      <trkpt lat="47.48671" lon="6.92406">
        <ele>465.775</ele>
        <time>2015-08-15T07:43:29Z</time>
      </trkpt>
      <trkpt lat="47.48641" lon="6.92406">
        <ele>471.28</ele>
        <time>2015-08-15T07:43:36Z</time>
      </trkpt>
      <trkpt lat="47.48622" lon="6.92394">
        <ele>473.877</ele>
        <time>2015-08-15T07:43:41Z</time>
      </trkpt>
      <trkpt lat="47.48619" lon="6.92362">
        <ele>473.639</ele>
        <time>2015-08-15T07:43:48Z</time>
      </trkpt>
      <trkpt lat="47.48619" lon="6.92342">
        <ele>474.11</ele>
        <time>2015-08-15T07:43:54Z</time>
      </trkpt>
      <trkpt lat="47.48617" lon="6.92309">
        <ele>473.754</ele>
        <time>2015-08-15T07:44:03Z</time>
      </trkpt>
      <trkpt lat="47.48613" lon="6.92279">
        <ele>472.659</ele>
        <time>2015-08-15T07:44:11Z</time>
      </trkpt>
      <trkpt lat="47.4861" lon="6.92252">
        <ele>472.086</ele>
        <time>2015-08-15T07:44:18Z</time>
      </trkpt>
      <trkpt lat="47.48603" lon="6.92213">
        <ele>473.115</ele>
        <time>2015-08-15T07:44:28Z</time>
      </trkpt>
      <trkpt lat="47.48601" lon="6.92178">
        <ele>474.314</ele>
        <time>2015-08-15T07:44:37Z</time>
      </trkpt>
      <trkpt lat="47.48596" lon="6.92147">
        <ele>475.243</ele>
        <time>2015-08-15T07:44:45Z</time>
      </trkpt>
      <trkpt lat="47.48595" lon="6.92123">
        <ele>475.919</ele>
        <time>2015-08-15T07:44:52Z</time>
      </trkpt>
      <trkpt lat="47.48594" lon="6.92085">
        <ele>476.701</ele>
        <time>2015-08-15T07:45:02Z</time>
      </trkpt>
      <trkpt lat="47.48593" lon="6.92059">
        <ele>478.305</ele>
        <time>2015-08-15T07:45:10Z</time>
      </trkpt>
      <trkpt lat="47.48593" lon="6.92035">
        <ele>480.34</ele>
        <time>2015-08-15T07:45:19Z</time>
      </trkpt>
      <trkpt lat="47.48586" lon="6.92016">
        <ele>485.339</ele>
        <time>2015-08-15T07:45:33Z</time>
      </trkpt>
      <trkpt lat="47.48564" lon="6.92037">
        <ele>488.545</ele>
        <time>2015-08-15T07:45:46Z</time>
      </trkpt>
      <trkpt lat="47.48545" lon="6.92055">
        <ele>490.048</ele>
        <time>2015-08-15T07:45:55Z</time>
      </trkpt>
      <trkpt lat="47.48529" lon="6.9206">
        <ele>491.355</ele>
        <time>2015-08-15T07:46:02Z</time>
      </trkpt>
      <trkpt lat="47.48508" lon="6.92058">
        <ele>493.5</ele>
        <time>2015-08-15T07:46:11Z</time>
      </trkpt>
      <trkpt lat="47.48497" lon="6.92038">
        <ele>494.013</ele>
        <time>2015-08-15T07:46:21Z</time>
      </trkpt>
      <trkpt lat="47.48499" lon="6.92">
        <ele>493.966</ele>
        <time>2015-08-15T07:46:30Z</time>
      </trkpt>
      <trkpt lat="47.48502" lon="6.91968">
        <ele>493.927</ele>
        <time>2015-08-15T07:46:37Z</time>
      </trkpt>
      <trkpt lat="47.48504" lon="6.91931">
        <ele>493.676</ele>
        <time>2015-08-15T07:46:44Z</time>
      </trkpt>
      <trkpt lat="47.48505" lon="6.91911">
        <ele>493.445</ele>
        <time>2015-08-15T07:46:48Z</time>
      </trkpt>
      <trkpt lat="47.48498" lon="6.91892">
        <ele>493.841</ele>
        <time>2015-08-15T07:46:53Z</time>
      </trkpt>
      <trkpt lat="47.48479" lon="6.91889">
        <ele>494.45</ele>
        <time>2015-08-15T07:46:58Z</time>
      </trkpt>
      <trkpt lat="47.48458" lon="6.91888">
        <ele>494.495</ele>
        <time>2015-08-15T07:47:04Z</time>
      </trkpt>
      <trkpt lat="47.48435" lon="6.91889">
        <ele>494.979</ele>
        <time>2015-08-15T07:47:12Z</time>
      </trkpt>
      <trkpt lat="47.48416" lon="6.91887">
        <ele>495.793</ele>
        <time>2015-08-15T07:47:19Z</time>
      </trkpt>
      <trkpt lat="47.48393" lon="6.91883">
        <ele>497.812</ele>
        <time>2015-08-15T07:47:28Z</time>
      </trkpt>
      <trkpt lat="47.48373" lon="6.91877">
        <ele>499.642</ele>
        <time>2015-08-15T07:47:37Z</time>
      </trkpt>
      <trkpt lat="47.48361" lon="6.91876">
        <ele>501.031</ele>
        <time>2015-08-15T07:47:44Z</time>
      </trkpt>
      <trkpt lat="47.4834" lon="6.91876">
        <ele>502.872</ele>
        <time>2015-08-15T07:47:57Z</time>
      </trkpt>
      <trkpt lat="47.48318" lon="6.91884">
        <ele>503.364</ele>
        <time>2015-08-15T07:48:07Z</time>
      </trkpt>
      <trkpt lat="47.48294" lon="6.91882">
        <ele>504.992</ele>
        <time>2015-08-15T07:48:17Z</time>
      </trkpt>
      <trkpt lat="47.4827" lon="6.91876">
        <ele>507.252</ele>
        <time>2015-08-15T07:48:26Z</time>
      </trkpt>
      <trkpt lat="47.48255" lon="6.91875">
        <ele>508.056</ele>
        <time>2015-08-15T07:48:31Z</time>
      </trkpt>
      <trkpt lat="47.48235" lon="6.91874">
        <ele>509.224</ele>
        <time>2015-08-15T07:48:39Z</time>
      </trkpt>
      <trkpt lat="47.48215" lon="6.91871">
        <ele>510.174</ele>
        <time>2015-08-15T07:48:48Z</time>
      </trkpt>
      <trkpt lat="47.48196" lon="6.91864">
        <ele>511.421</ele>
        <time>2015-08-15T07:48:56Z</time>
      </trkpt>
      <trkpt lat="47.48177" lon="6.91868">
        <ele>512.771</ele>
        <time>2015-08-15T07:49:04Z</time>
      </trkpt>
      <trkpt lat="47.48155" lon="6.91873">
        <ele>515.384</ele>
        <time>2015-08-15T07:49:12Z</time>
      </trkpt>
      <trkpt lat="47.48137" lon="6.91872">
        <ele>517.714</ele>
        <time>2015-08-15T07:49:19Z</time>
      </trkpt>
      <trkpt lat="47.48124" lon="6.91872">
        <ele>519.586</ele>
        <time>2015-08-15T07:49:25Z</time>
      </trkpt>
      <trkpt lat="47.48108" lon="6.91872">
        <ele>520.226</ele>
        <time>2015-08-15T07:49:30Z</time>
      </trkpt>
      <trkpt lat="47.48082" lon="6.91873">
        <ele>521.834</ele>
        <time>2015-08-15T07:49:39Z</time>
      </trkpt>
      <trkpt lat="47.48061" lon="6.91874">
        <ele>523.375</ele>
        <time>2015-08-15T07:49:47Z</time>
      </trkpt>
      <trkpt lat="47.4804" lon="6.91874">
        <ele>525.118</ele>
        <time>2015-08-15T07:49:55Z</time>
      </trkpt>
      <trkpt lat="47.48023" lon="6.91881">
        <ele>526.372</ele>
        <time>2015-08-15T07:50:02Z</time>
      </trkpt>
      <trkpt lat="47.48002" lon="6.919">
        <ele>527.096</ele>
        <time>2015-08-15T07:50:12Z</time>
      </trkpt>
      <trkpt lat="47.47981" lon="6.91921">
        <ele>527.82</ele>
        <time>2015-08-15T07:50:22Z</time>
      </trkpt>
      <trkpt lat="47.4796" lon="6.91945">
        <ele>529.508</ele>
        <time>2015-08-15T07:50:32Z</time>
      </trkpt>
      <trkpt lat="47.47943" lon="6.91963">
        <ele>531.026</ele>
        <time>2015-08-15T07:50:41Z</time>
      </trkpt>
      <trkpt lat="47.47927" lon="6.9198">
        <ele>532.371</ele>
        <time>2015-08-15T07:50:52Z</time>
      </trkpt>
      <trkpt lat="47.47908" lon="6.91994">
        <ele>534.841</ele>
        <time>2015-08-15T07:51:02Z</time>
      </trkpt>
      <trkpt lat="47.47895" lon="6.92008">
        <ele>537.052</ele>
        <time>2015-08-15T07:51:10Z</time>
      </trkpt>
      <trkpt lat="47.47877" lon="6.92028">
        <ele>539.816</ele>
        <time>2015-08-15T07:51:20Z</time>
      </trkpt>
      <trkpt lat="47.47869" lon="6.92041">
        <ele>540.215</ele>
        <time>2015-08-15T07:51:25Z</time>
      </trkpt>
      <trkpt lat="47.47861" lon="6.92056">
        <ele>540.897</ele>
        <time>2015-08-15T07:51:31Z</time>
      </trkpt>
      <trkpt lat="47.47858" lon="6.92071">
        <ele>542.793</ele>
        <time>2015-08-15T07:51:37Z</time>
      </trkpt>
      <trkpt lat="47.47869" lon="6.92117">
        <ele>546.131</ele>
        <time>2015-08-15T07:51:50Z</time>
      </trkpt>
      <trkpt lat="47.47871" lon="6.92135">
        <ele>547.139</ele>
        <time>2015-08-15T07:51:56Z</time>
      </trkpt>
      <trkpt lat="47.47864" lon="6.92153">
        <ele>547.604</ele>
        <time>2015-08-15T07:52:02Z</time>
      </trkpt>
      <trkpt lat="47.47852" lon="6.92167">
        <ele>549.186</ele>
        <time>2015-08-15T07:52:11Z</time>
      </trkpt>
      <trkpt lat="47.47832" lon="6.92188">
        <ele>549.309</ele>
        <time>2015-08-15T07:52:22Z</time>
      </trkpt>
      <trkpt lat="47.47811" lon="6.92208">
        <ele>549.382</ele>
        <time>2015-08-15T07:52:32Z</time>
      </trkpt>
      <trkpt lat="47.47793" lon="6.9223">
        <ele>547.937</ele>
        <time>2015-08-15T07:52:42Z</time>
      </trkpt>
      <trkpt lat="47.47782" lon="6.92247">
        <ele>548.161</ele>
        <time>2015-08-15T07:52:49Z</time>
      </trkpt>
      <trkpt lat="47.47776" lon="6.92265">
        <ele>548.179</ele>
        <time>2015-08-15T07:52:54Z</time>
      </trkpt>
      <trkpt lat="47.47762" lon="6.92288">
        <ele>548.751</ele>
        <time>2015-08-15T07:53:04Z</time>
      </trkpt>
      <trkpt lat="47.47755" lon="6.92304">
        <ele>549.973</ele>
        <time>2015-08-15T07:53:11Z</time>
      </trkpt>
      <trkpt lat="47.4775" lon="6.92332">
        <ele>551.848</ele>
        <time>2015-08-15T07:53:22Z</time>
      </trkpt>
      <trkpt lat="47.47748" lon="6.92349">
        <ele>553.211</ele>
        <time>2015-08-15T07:53:28Z</time>
      </trkpt>
      <trkpt lat="47.47746" lon="6.92378">
        <ele>555.038</ele>
        <time>2015-08-15T07:53:36Z</time>
      </trkpt>
      <trkpt lat="47.47733" lon="6.924">
        <ele>556.477</ele>
        <time>2015-08-15T07:53:45Z</time>
      </trkpt>
      <trkpt lat="47.47715" lon="6.92416">
        <ele>556.511</ele>
        <time>2015-08-15T07:53:52Z</time>
      </trkpt>
      <trkpt lat="47.47704" lon="6.92426">
        <ele>555.792</ele>
        <time>2015-08-15T07:53:57Z</time>
      </trkpt>
      <trkpt lat="47.47687" lon="6.92432">
        <ele>554.721</ele>
        <time>2015-08-15T07:54:04Z</time>
      </trkpt>
      <trkpt lat="47.47663" lon="6.9245">
        <ele>554.195</ele>
        <time>2015-08-15T07:54:13Z</time>
      </trkpt>
      <trkpt lat="47.47653" lon="6.92459">
        <ele>554.45</ele>
        <time>2015-08-15T07:54:18Z</time>
      </trkpt>
      <trkpt lat="47.4763" lon="6.92471">
        <ele>555.06</ele>
        <time>2015-08-15T07:54:28Z</time>
      </trkpt>
      <trkpt lat="47.47609" lon="6.92489">
        <ele>556.531</ele>
        <time>2015-08-15T07:54:37Z</time>
      </trkpt>
      <trkpt lat="47.47597" lon="6.925">
        <ele>556.642</ele>
        <time>2015-08-15T07:54:42Z</time>
      </trkpt>
      <trkpt lat="47.4758" lon="6.92511">
        <ele>556.119</ele>
        <time>2015-08-15T07:54:50Z</time>
      </trkpt>
      <trkpt lat="47.47558" lon="6.92526">
        <ele>557.52</ele>
        <time>2015-08-15T07:55:00Z</time>
      </trkpt>
      <trkpt lat="47.47545" lon="6.92535">
        <ele>558.839</ele>
        <time>2015-08-15T07:55:06Z</time>
      </trkpt>
      <trkpt lat="47.47529" lon="6.92544">
        <ele>559.475</ele>
        <time>2015-08-15T07:55:12Z</time>
      </trkpt>
      <trkpt lat="47.47504" lon="6.92547">
        <ele>560.485</ele>
        <time>2015-08-15T07:55:20Z</time>
      </trkpt>
      <trkpt lat="47.47487" lon="6.92539">
        <ele>561.241</ele>
        <time>2015-08-15T07:55:26Z</time>
      </trkpt>
      <trkpt lat="47.47467" lon="6.92522">
        <ele>562.493</ele>
        <time>2015-08-15T07:55:33Z</time>
      </trkpt>
      <trkpt lat="47.47446" lon="6.92501">
        <ele>564.604</ele>
        <time>2015-08-15T07:55:42Z</time>
      </trkpt>
      <trkpt lat="47.47427" lon="6.92486">
        <ele>566.211</ele>
        <time>2015-08-15T07:55:49Z</time>
      </trkpt>
      <trkpt lat="47.47416" lon="6.92478">
        <ele>567.001</ele>
        <time>2015-08-15T07:55:54Z</time>
      </trkpt>
      <trkpt lat="47.47416" lon="6.92478">
        <ele>525.2</ele>
        <time>2015-08-15T07:55:59Z</time>
      </trkpt>
      <trkpt lat="47.47416" lon="6.92478">
        <ele>525.2</ele>
        <time>2015-08-15T07:56:04Z</time>
      </trkpt>
      <trkpt lat="47.47409" lon="6.92472">
        <ele>568.325</ele>
        <time>2015-08-15T07:56:04Z</time>
      </trkpt>
      <trkpt lat="47.47385" lon="6.92452">
        <ele>573.372</ele>
        <time>2015-08-15T07:56:33Z</time>
      </trkpt>
      <trkpt lat="47.47368" lon="6.92443">
        <ele>574.222</ele>
        <time>2015-08-15T07:56:40Z</time>
      </trkpt>
      <trkpt lat="47.47341" lon="6.92434">
        <ele>574.221</ele>
        <time>2015-08-15T07:56:49Z</time>
      </trkpt>
      <trkpt lat="47.47324" lon="6.92431">
        <ele>573.643</ele>
        <time>2015-08-15T07:56:56Z</time>
      </trkpt>
      <trkpt lat="47.47299" lon="6.9243">
        <ele>572.69</ele>
        <time>2015-08-15T07:57:04Z</time>
      </trkpt>
      <trkpt lat="47.47282" lon="6.92431">
        <ele>572.391</ele>
        <time>2015-08-15T07:57:12Z</time>
      </trkpt>
      <trkpt lat="47.47262" lon="6.92434">
        <ele>573.35</ele>
        <time>2015-08-15T07:57:22Z</time>
      </trkpt>
      <trkpt lat="47.47245" lon="6.9243">
        <ele>575.48</ele>
        <time>2015-08-15T07:57:30Z</time>
      </trkpt>
      <trkpt lat="47.47218" lon="6.92416">
        <ele>577.507</ele>
        <time>2015-08-15T07:57:39Z</time>
      </trkpt>
      <trkpt lat="47.47205" lon="6.92404">
        <ele>577.939</ele>
        <time>2015-08-15T07:57:45Z</time>
      </trkpt>
      <trkpt lat="47.47186" lon="6.92382">
        <ele>577.367</ele>
        <time>2015-08-15T07:57:52Z</time>
      </trkpt>
      <trkpt lat="47.47173" lon="6.92362">
        <ele>577.326</ele>
        <time>2015-08-15T07:57:58Z</time>
      </trkpt>
      <trkpt lat="47.47157" lon="6.9234">
        <ele>573.069</ele>
        <time>2015-08-15T07:58:04Z</time>
      </trkpt>
      <trkpt lat="47.4714" lon="6.92315">
        <ele>571.011</ele>
        <time>2015-08-15T07:58:10Z</time>
      </trkpt>
      <trkpt lat="47.47123" lon="6.92291">
        <ele>573.961</ele>
        <time>2015-08-15T07:58:16Z</time>
      </trkpt>
      <trkpt lat="47.47104" lon="6.92266">
        <ele>575.739</ele>
        <time>2015-08-15T07:58:22Z</time>
      </trkpt>
      <trkpt lat="47.4711" lon="6.92217">
        <ele>579.276</ele>
        <time>2015-08-15T07:58:28Z</time>
      </trkpt>
      <trkpt lat="47.47135" lon="6.92163">
        <ele>578.173</ele>
        <time>2015-08-15T07:58:34Z</time>
      </trkpt>
      <trkpt lat="47.47162" lon="6.92115">
        <ele>584.556</ele>
        <time>2015-08-15T07:58:40Z</time>
      </trkpt>
      <trkpt lat="47.47182" lon="6.92079">
        <ele>593.62</ele>
        <time>2015-08-15T07:58:46Z</time>
      </trkpt>
      <trkpt lat="47.472" lon="6.92041">
        <ele>596.239</ele>
        <time>2015-08-15T07:58:54Z</time>
      </trkpt>
      <trkpt lat="47.47198" lon="6.92012">
        <ele>595.457</ele>
        <time>2015-08-15T07:59:01Z</time>
      </trkpt>
      <trkpt lat="47.47181" lon="6.92016">
        <ele>592.206</ele>
        <time>2015-08-15T07:59:06Z</time>
      </trkpt>
      <trkpt lat="47.47165" lon="6.92026">
        <ele>590.872</ele>
        <time>2015-08-15T07:59:12Z</time>
      </trkpt>
      <trkpt lat="47.47148" lon="6.92037">
        <ele>590.543</ele>
        <time>2015-08-15T07:59:18Z</time>
      </trkpt>
      <trkpt lat="47.47127" lon="6.92044">
        <ele>590.487</ele>
        <time>2015-08-15T07:59:25Z</time>
      </trkpt>
      <trkpt lat="47.47108" lon="6.92042">
        <ele>590.26</ele>
        <time>2015-08-15T07:59:33Z</time>
      </trkpt>
      <trkpt lat="47.47078" lon="6.92042">
        <ele>589.022</ele>
        <time>2015-08-15T07:59:44Z</time>
      </trkpt>
      <trkpt lat="47.47058" lon="6.9205">
        <ele>588.719</ele>
        <time>2015-08-15T07:59:52Z</time>
      </trkpt>
      <trkpt lat="47.47037" lon="6.92063">
        <ele>589.276</ele>
        <time>2015-08-15T08:00:01Z</time>
      </trkpt>
      <trkpt lat="47.47017" lon="6.92072">
        <ele>590.296</ele>
        <time>2015-08-15T08:00:10Z</time>
      </trkpt>
      <trkpt lat="47.46991" lon="6.92086">
        <ele>592.588</ele>
        <time>2015-08-15T08:00:21Z</time>
      </trkpt>
      <trkpt lat="47.46972" lon="6.92097">
        <ele>594.184</ele>
        <time>2015-08-15T08:00:30Z</time>
      </trkpt>
      <trkpt lat="47.46961" lon="6.921">
        <ele>594.772</ele>
        <time>2015-08-15T08:00:36Z</time>
      </trkpt>
      <trkpt lat="47.46947" lon="6.92103">
        <ele>595.209</ele>
        <time>2015-08-15T08:00:43Z</time>
      </trkpt>
      <trkpt lat="47.46926" lon="6.92114">
        <ele>595.643</ele>
        <time>2015-08-15T08:00:50Z</time>
      </trkpt>
      <trkpt lat="47.46915" lon="6.92123">
        <ele>595.979</ele>
        <time>2015-08-15T08:00:55Z</time>
      </trkpt>
      <trkpt lat="47.46891" lon="6.92139">
        <ele>597.249</ele>
        <time>2015-08-15T08:01:04Z</time>
      </trkpt>
      <trkpt lat="47.46869" lon="6.92164">
        <ele>601.699</ele>
        <time>2015-08-15T08:01:12Z</time>
      </trkpt>
      <trkpt lat="47.46859" lon="6.92181">
        <ele>606.188</ele>
        <time>2015-08-15T08:01:16Z</time>
      </trkpt>
      <trkpt lat="47.46844" lon="6.92212">
        <ele>606.612</ele>
        <time>2015-08-15T08:01:22Z</time>
      </trkpt>
      <trkpt lat="47.46829" lon="6.92246">
        <ele>607.634</ele>
        <time>2015-08-15T08:01:27Z</time>
      </trkpt>
      <trkpt lat="47.46822" lon="6.92267">
        <ele>605.97</ele>
        <time>2015-08-15T08:01:30Z</time>
      </trkpt>
      <trkpt lat="47.46812" lon="6.92307">
        <ele>604.427</ele>
        <time>2015-08-15T08:01:36Z</time>
      </trkpt>
      <trkpt lat="47.46807" lon="6.92328">
        <ele>606.84</ele>
        <time>2015-08-15T08:01:39Z</time>
      </trkpt>
      <trkpt lat="47.46797" lon="6.92367">
        <ele>610.094</ele>
        <time>2015-08-15T08:01:45Z</time>
      </trkpt>
      <trkpt lat="47.4679" lon="6.92396">
        <ele>611.969</ele>
        <time>2015-08-15T08:01:50Z</time>
      </trkpt>
      <trkpt lat="47.46781" lon="6.92424">
        <ele>613.115</ele>
        <time>2015-08-15T08:01:55Z</time>
      </trkpt>
      <trkpt lat="47.46774" lon="6.92455">
        <ele>612.672</ele>
        <time>2015-08-15T08:02:00Z</time>
      </trkpt>
      <trkpt lat="47.46766" lon="6.92492">
        <ele>611.121</ele>
        <time>2015-08-15T08:02:06Z</time>
      </trkpt>
      <trkpt lat="47.46752" lon="6.92544">
        <ele>611.163</ele>
        <time>2015-08-15T08:02:14Z</time>
      </trkpt>
      <trkpt lat="47.46743" lon="6.9258">
        <ele>609.619</ele>
        <time>2015-08-15T08:02:19Z</time>
      </trkpt>
      <trkpt lat="47.46731" lon="6.92622">
        <ele>608.11</ele>
        <time>2015-08-15T08:02:25Z</time>
      </trkpt>
      <trkpt lat="47.46718" lon="6.92663">
        <ele>608.418</ele>
        <time>2015-08-15T08:02:31Z</time>
      </trkpt>
      <trkpt lat="47.46706" lon="6.92697">
        <ele>609.672</ele>
        <time>2015-08-15T08:02:36Z</time>
      </trkpt>
      <trkpt lat="47.46692" lon="6.92733">
        <ele>611.478</ele>
        <time>2015-08-15T08:02:42Z</time>
      </trkpt>
      <trkpt lat="47.46675" lon="6.92765">
        <ele>612.508</ele>
        <time>2015-08-15T08:02:48Z</time>
      </trkpt>
      <trkpt lat="47.46657" lon="6.92786">
        <ele>613.308</ele>
        <time>2015-08-15T08:02:53Z</time>
      </trkpt>
      <trkpt lat="47.46636" lon="6.92808">
        <ele>614.065</ele>
        <time>2015-08-15T08:02:59Z</time>
      </trkpt>
      <trkpt lat="47.46617" lon="6.92827">
        <ele>613.818</ele>
        <time>2015-08-15T08:03:05Z</time>
      </trkpt>
      <trkpt lat="47.46607" lon="6.92834">
        <ele>613.734</ele>
        <time>2015-08-15T08:03:08Z</time>
      </trkpt>
      <trkpt lat="47.46597" lon="6.92841">
        <ele>613.953</ele>
        <time>2015-08-15T08:03:11Z</time>
      </trkpt>
      <trkpt lat="47.46587" lon="6.92846">
        <ele>613.904</ele>
        <time>2015-08-15T08:03:14Z</time>
      </trkpt>
      <trkpt lat="47.46578" lon="6.92852">
        <ele>613.884</ele>
        <time>2015-08-15T08:03:17Z</time>
      </trkpt>
      <trkpt lat="47.46569" lon="6.92857">
        <ele>613.91</ele>
        <time>2015-08-15T08:03:20Z</time>
      </trkpt>
      <trkpt lat="47.46547" lon="6.9287">
        <ele>614.29</ele>
        <time>2015-08-15T08:03:27Z</time>
      </trkpt>
      <trkpt lat="47.46529" lon="6.92882">
        <ele>614.812</ele>
        <time>2015-08-15T08:03:33Z</time>
      </trkpt>
      <trkpt lat="47.46516" lon="6.9289">
        <ele>615.083</ele>
        <time>2015-08-15T08:03:37Z</time>
      </trkpt>
      <trkpt lat="47.46482" lon="6.92911">
        <ele>612.478</ele>
        <time>2015-08-15T08:03:45Z</time>
      </trkpt>
      <trkpt lat="47.46453" lon="6.92929">
        <ele>609.574</ele>
        <time>2015-08-15T08:03:51Z</time>
      </trkpt>
      <trkpt lat="47.46424" lon="6.92942">
        <ele>608.656</ele>
        <time>2015-08-15T08:03:57Z</time>
      </trkpt>
      <trkpt lat="47.46392" lon="6.92955">
        <ele>607.057</ele>
        <time>2015-08-15T08:04:03Z</time>
      </trkpt>
      <trkpt lat="47.46359" lon="6.92968">
        <ele>605.461</ele>
        <time>2015-08-15T08:04:09Z</time>
      </trkpt>
      <trkpt lat="47.4633" lon="6.92977">
        <ele>602.373</ele>
        <time>2015-08-15T08:04:14Z</time>
      </trkpt>
      <trkpt lat="47.46313" lon="6.92983">
        <ele>602.599</ele>
        <time>2015-08-15T08:04:17Z</time>
      </trkpt>
      <trkpt lat="47.46281" lon="6.92993">
        <ele>604.728</ele>
        <time>2015-08-15T08:04:23Z</time>
      </trkpt>
      <trkpt lat="47.46251" lon="6.93004">
        <ele>603.566</ele>
        <time>2015-08-15T08:04:29Z</time>
      </trkpt>
      <trkpt lat="47.46226" lon="6.93013">
        <ele>602.036</ele>
        <time>2015-08-15T08:04:34Z</time>
      </trkpt>
      <trkpt lat="47.46202" lon="6.93024">
        <ele>603.314</ele>
        <time>2015-08-15T08:04:39Z</time>
      </trkpt>
      <trkpt lat="47.46173" lon="6.93036">
        <ele>604.308</ele>
        <time>2015-08-15T08:04:45Z</time>
      </trkpt>
      <trkpt lat="47.4616" lon="6.93043">
        <ele>602.723</ele>
        <time>2015-08-15T08:04:48Z</time>
      </trkpt>
      <trkpt lat="47.46139" lon="6.93052">
        <ele>602.027</ele>
        <time>2015-08-15T08:04:53Z</time>
      </trkpt>
      <trkpt lat="47.46117" lon="6.93052">
        <ele>603.641</ele>
        <time>2015-08-15T08:04:58Z</time>
      </trkpt>
      <trkpt lat="47.46092" lon="6.93048">
        <ele>607.461</ele>
        <time>2015-08-15T08:05:04Z</time>
      </trkpt>
      <trkpt lat="47.46074" lon="6.93043">
        <ele>610.179</ele>
        <time>2015-08-15T08:05:10Z</time>
      </trkpt>
      <trkpt lat="47.46054" lon="6.9304">
        <ele>610.41</ele>
        <time>2015-08-15T08:05:16Z</time>
      </trkpt>
      <trkpt lat="47.46025" lon="6.93033">
        <ele>609.011</ele>
        <time>2015-08-15T08:05:23Z</time>
      </trkpt>
      <trkpt lat="47.4601" lon="6.93028">
        <ele>608.546</ele>
        <time>2015-08-15T08:05:28Z</time>
      </trkpt>
      <trkpt lat="47.45993" lon="6.93021">
        <ele>608.222</ele>
        <time>2015-08-15T08:05:35Z</time>
      </trkpt>
      <trkpt lat="47.45977" lon="6.93009">
        <ele>609.23</ele>
        <time>2015-08-15T08:05:41Z</time>
      </trkpt>
      <trkpt lat="47.45957" lon="6.92992">
        <ele>609.635</ele>
        <time>2015-08-15T08:05:47Z</time>
      </trkpt>
      <trkpt lat="47.4594" lon="6.92977">
        <ele>609.943</ele>
        <time>2015-08-15T08:05:53Z</time>
      </trkpt>
      <trkpt lat="47.45925" lon="6.92962">
        <ele>611.318</ele>
        <time>2015-08-15T08:05:59Z</time>
      </trkpt>
      <trkpt lat="47.45905" lon="6.92951">
        <ele>614.458</ele>
        <time>2015-08-15T08:06:06Z</time>
      </trkpt>
      <trkpt lat="47.45889" lon="6.92933">
        <ele>614.858</ele>
        <time>2015-08-15T08:06:13Z</time>
      </trkpt>
      <trkpt lat="47.45865" lon="6.92916">
        <ele>614.75</ele>
        <time>2015-08-15T08:06:19Z</time>
      </trkpt>
      <trkpt lat="47.45847" lon="6.92905">
        <ele>614.681</ele>
        <time>2015-08-15T08:06:24Z</time>
      </trkpt>
      <trkpt lat="47.45824" lon="6.92889">
        <ele>614.713</ele>
        <time>2015-08-15T08:06:30Z</time>
      </trkpt>
      <trkpt lat="47.45798" lon="6.9287">
        <ele>622.021</ele>
        <time>2015-08-15T08:06:37Z</time>
      </trkpt>
      <trkpt lat="47.45775" lon="6.92842">
        <ele>622.073</ele>
        <time>2015-08-15T08:06:46Z</time>
      </trkpt>
      <trkpt lat="47.45758" lon="6.92821">
        <ele>621.846</ele>
        <time>2015-08-15T08:06:52Z</time>
      </trkpt>
      <trkpt lat="47.45745" lon="6.92805">
        <ele>621.42</ele>
        <time>2015-08-15T08:06:57Z</time>
      </trkpt>
      <trkpt lat="47.45726" lon="6.92793">
        <ele>620.05</ele>
        <time>2015-08-15T08:07:04Z</time>
      </trkpt>
      <trkpt lat="47.45703" lon="6.9279">
        <ele>619.219</ele>
        <time>2015-08-15T08:07:13Z</time>
      </trkpt>
      <trkpt lat="47.45676" lon="6.92786">
        <ele>619.559</ele>
        <time>2015-08-15T08:07:21Z</time>
      </trkpt>
      <trkpt lat="47.45658" lon="6.92793">
        <ele>620.119</ele>
        <time>2015-08-15T08:07:26Z</time>
      </trkpt>
      <trkpt lat="47.45628" lon="6.92802">
        <ele>620.935</ele>
        <time>2015-08-15T08:07:33Z</time>
      </trkpt>
      <trkpt lat="47.45602" lon="6.92805">
        <ele>621.384</ele>
        <time>2015-08-15T08:07:40Z</time>
      </trkpt>
      <trkpt lat="47.45576" lon="6.92811">
        <ele>619.395</ele>
        <time>2015-08-15T08:07:46Z</time>
      </trkpt>
      <trkpt lat="47.45553" lon="6.92823">
        <ele>616.584</ele>
        <time>2015-08-15T08:07:53Z</time>
      </trkpt>
      <trkpt lat="47.45524" lon="6.92838">
        <ele>620.254</ele>
        <time>2015-08-15T08:08:00Z</time>
      </trkpt>
      <trkpt lat="47.45505" lon="6.92838">
        <ele>627.473</ele>
        <time>2015-08-15T08:08:05Z</time>
      </trkpt>
      <trkpt lat="47.45478" lon="6.92836">
        <ele>631.285</ele>
        <time>2015-08-15T08:08:12Z</time>
      </trkpt>
      <trkpt lat="47.45449" lon="6.92834">
        <ele>629.861</ele>
        <time>2015-08-15T08:08:19Z</time>
      </trkpt>
      <trkpt lat="47.45434" lon="6.92833">
        <ele>629.036</ele>
        <time>2015-08-15T08:08:24Z</time>
      </trkpt>
      <trkpt lat="47.45416" lon="6.92835">
        <ele>627.702</ele>
        <time>2015-08-15T08:08:31Z</time>
      </trkpt>
      <trkpt lat="47.45394" lon="6.92836">
        <ele>628.298</ele>
        <time>2015-08-15T08:08:37Z</time>
      </trkpt>
      <trkpt lat="47.4537" lon="6.92843">
        <ele>629.399</ele>
        <time>2015-08-15T08:08:44Z</time>
      </trkpt>
      <trkpt lat="47.45346" lon="6.92849">
        <ele>630.107</ele>
        <time>2015-08-15T08:08:50Z</time>
      </trkpt>
      <trkpt lat="47.45323" lon="6.92854">
        <ele>631.561</ele>
        <time>2015-08-15T08:08:56Z</time>
      </trkpt>
      <trkpt lat="47.45297" lon="6.92867">
        <ele>631.535</ele>
        <time>2015-08-15T08:09:02Z</time>
      </trkpt>
      <trkpt lat="47.45274" lon="6.92874">
        <ele>631.908</ele>
        <time>2015-08-15T08:09:07Z</time>
      </trkpt>
      <trkpt lat="47.4525" lon="6.92884">
        <ele>632.942</ele>
        <time>2015-08-15T08:09:13Z</time>
      </trkpt>
      <trkpt lat="47.45222" lon="6.92883">
        <ele>635.238</ele>
        <time>2015-08-15T08:09:20Z</time>
      </trkpt>
      <trkpt lat="47.45198" lon="6.92879">
        <ele>636.916</ele>
        <time>2015-08-15T08:09:26Z</time>
      </trkpt>
      <trkpt lat="47.45177" lon="6.92876">
        <ele>634.287</ele>
        <time>2015-08-15T08:09:31Z</time>
      </trkpt>
      <trkpt lat="47.45162" lon="6.92875">
        <ele>634.047</ele>
        <time>2015-08-15T08:09:36Z</time>
      </trkpt>
      <trkpt lat="47.45131" lon="6.92862">
        <ele>634.555</ele>
        <time>2015-08-15T08:09:44Z</time>
      </trkpt>
      <trkpt lat="47.45111" lon="6.92836">
        <ele>629.81</ele>
        <time>2015-08-15T08:09:51Z</time>
      </trkpt>
      <trkpt lat="47.45096" lon="6.92816">
        <ele>624.023</ele>
        <time>2015-08-15T08:09:56Z</time>
      </trkpt>
      <trkpt lat="47.45072" lon="6.9279">
        <ele>621.073</ele>
        <time>2015-08-15T08:10:03Z</time>
      </trkpt>
      <trkpt lat="47.45049" lon="6.92778">
        <ele>621.078</ele>
        <time>2015-08-15T08:10:09Z</time>
      </trkpt>
      <trkpt lat="47.45014" lon="6.92784">
        <ele>624.469</ele>
        <time>2015-08-15T08:10:17Z</time>
      </trkpt>
      <trkpt lat="47.44988" lon="6.92783">
        <ele>629.709</ele>
        <time>2015-08-15T08:10:23Z</time>
      </trkpt>
      <trkpt lat="47.44968" lon="6.92783">
        <ele>632.047</ele>
        <time>2015-08-15T08:10:29Z</time>
      </trkpt>
      <trkpt lat="47.44938" lon="6.92778">
        <ele>633.01</ele>
        <time>2015-08-15T08:10:34Z</time>
      </trkpt>
      <trkpt lat="47.44911" lon="6.92775">
        <ele>633.652</ele>
        <time>2015-08-15T08:10:40Z</time>
      </trkpt>
      <trkpt lat="47.44889" lon="6.92763">
        <ele>636.962</ele>
        <time>2015-08-15T08:10:46Z</time>
      </trkpt>
      <trkpt lat="47.44867" lon="6.92737">
        <ele>636.466</ele>
        <time>2015-08-15T08:10:53Z</time>
      </trkpt>
      <trkpt lat="47.44856" lon="6.92709">
        <ele>634.982</ele>
        <time>2015-08-15T08:10:58Z</time>
      </trkpt>
      <trkpt lat="47.44839" lon="6.92687">
        <ele>633.512</ele>
        <time>2015-08-15T08:11:03Z</time>
      </trkpt>
      <trkpt lat="47.44821" lon="6.92667">
        <ele>632.907</ele>
        <time>2015-08-15T08:11:09Z</time>
      </trkpt>
      <trkpt lat="47.44798" lon="6.92652">
        <ele>631.79</ele>
        <time>2015-08-15T08:11:16Z</time>
      </trkpt>
      <trkpt lat="47.44784" lon="6.92641">
        <ele>632.2</ele>
        <time>2015-08-15T08:11:21Z</time>
      </trkpt>
      <trkpt lat="47.44758" lon="6.92632">
        <ele>631.59</ele>
        <time>2015-08-15T08:11:29Z</time>
      </trkpt>
      <trkpt lat="47.44734" lon="6.9262">
        <ele>631.536</ele>
        <time>2015-08-15T08:11:35Z</time>
      </trkpt>
      <trkpt lat="47.44723" lon="6.92606">
        <ele>632.063</ele>
        <time>2015-08-15T08:11:40Z</time>
      </trkpt>
      <trkpt lat="47.44709" lon="6.92566">
        <ele>634.094</ele>
        <time>2015-08-15T08:11:49Z</time>
      </trkpt>
      <trkpt lat="47.44699" lon="6.92541">
        <ele>634.147</ele>
        <time>2015-08-15T08:11:56Z</time>
      </trkpt>
      <trkpt lat="47.44691" lon="6.92522">
        <ele>634.505</ele>
        <time>2015-08-15T08:12:02Z</time>
      </trkpt>
      <trkpt lat="47.44684" lon="6.92497">
        <ele>634.84</ele>
        <time>2015-08-15T08:12:09Z</time>
      </trkpt>
      <trkpt lat="47.44676" lon="6.92466">
        <ele>635.493</ele>
        <time>2015-08-15T08:12:16Z</time>
      </trkpt>
      <trkpt lat="47.44669" lon="6.9243">
        <ele>636.853</ele>
        <time>2015-08-15T08:12:23Z</time>
      </trkpt>
      <trkpt lat="47.44657" lon="6.92399">
        <ele>639.309</ele>
        <time>2015-08-15T08:12:31Z</time>
      </trkpt>
      <trkpt lat="47.44634" lon="6.92371">
        <ele>640.295</ele>
        <time>2015-08-15T08:12:40Z</time>
      </trkpt>
      <trkpt lat="47.44612" lon="6.92357">
        <ele>639.862</ele>
        <time>2015-08-15T08:12:47Z</time>
      </trkpt>
      <trkpt lat="47.44592" lon="6.92354">
        <ele>640.353</ele>
        <time>2015-08-15T08:12:54Z</time>
      </trkpt>
      <trkpt lat="47.44572" lon="6.92358">
        <ele>642.093</ele>
        <time>2015-08-15T08:12:59Z</time>
      </trkpt>
      <trkpt lat="47.44561" lon="6.92359">
        <ele>642.625</ele>
        <time>2015-08-15T08:13:03Z</time>
      </trkpt>
      <trkpt lat="47.4454" lon="6.92361">
        <ele>643.393</ele>
        <time>2015-08-15T08:13:10Z</time>
      </trkpt>
      <trkpt lat="47.44524" lon="6.92364">
        <ele>644.008</ele>
        <time>2015-08-15T08:13:15Z</time>
      </trkpt>
      <trkpt lat="47.44509" lon="6.92369">
        <ele>644.277</ele>
        <time>2015-08-15T08:13:20Z</time>
      </trkpt>
      <trkpt lat="47.44488" lon="6.92372">
        <ele>644.123</ele>
        <time>2015-08-15T08:13:25Z</time>
      </trkpt>
      <trkpt lat="47.44469" lon="6.92374">
        <ele>645.269</ele>
        <time>2015-08-15T08:13:30Z</time>
      </trkpt>
      <trkpt lat="47.44432" lon="6.92376">
        <ele>647.886</ele>
        <time>2015-08-15T08:13:37Z</time>
      </trkpt>
      <trkpt lat="47.44407" lon="6.92375">
        <ele>648.626</ele>
        <time>2015-08-15T08:13:41Z</time>
      </trkpt>
      <trkpt lat="47.44372" lon="6.92346">
        <ele>651.019</ele>
        <time>2015-08-15T08:13:46Z</time>
      </trkpt>
      <trkpt lat="47.44334" lon="6.92311">
        <ele>653.749</ele>
        <time>2015-08-15T08:13:51Z</time>
      </trkpt>
      <trkpt lat="47.44281" lon="6.92265">
        <ele>652.226</ele>
        <time>2015-08-15T08:13:57Z</time>
      </trkpt>
      <trkpt lat="47.44227" lon="6.92251">
        <ele>642.87</ele>
        <time>2015-08-15T08:14:03Z</time>
      </trkpt>
      <trkpt lat="47.44196" lon="6.92251">
        <ele>634.854</ele>
        <time>2015-08-15T08:14:06Z</time>
      </trkpt>
      <trkpt lat="47.44135" lon="6.92253">
        <ele>625.058</ele>
        <time>2015-08-15T08:14:12Z</time>
      </trkpt>
      <trkpt lat="47.44075" lon="6.92248">
        <ele>616.38</ele>
        <time>2015-08-15T08:14:19Z</time>
      </trkpt>
      <trkpt lat="47.44037" lon="6.9224">
        <ele>612.862</ele>
        <time>2015-08-15T08:14:25Z</time>
      </trkpt>
      <trkpt lat="47.44011" lon="6.92218">
        <ele>617.066</ele>
        <time>2015-08-15T08:14:31Z</time>
      </trkpt>
      <trkpt lat="47.4399" lon="6.92193">
        <ele>624.101</ele>
        <time>2015-08-15T08:14:36Z</time>
      </trkpt>
      <trkpt lat="47.43978" lon="6.92177">
        <ele>628.367</ele>
        <time>2015-08-15T08:14:39Z</time>
      </trkpt>
      <trkpt lat="47.43966" lon="6.9216">
        <ele>631.39</ele>
        <time>2015-08-15T08:14:42Z</time>
      </trkpt>
      <trkpt lat="47.43955" lon="6.92146">
        <ele>633.044</ele>
        <time>2015-08-15T08:14:45Z</time>
      </trkpt>
      <trkpt lat="47.43929" lon="6.92117">
        <ele>638.379</ele>
        <time>2015-08-15T08:14:51Z</time>
      </trkpt>
      <trkpt lat="47.43913" lon="6.921">
        <ele>639.921</ele>
        <time>2015-08-15T08:14:55Z</time>
      </trkpt>
      <trkpt lat="47.43888" lon="6.92077">
        <ele>636.738</ele>
        <time>2015-08-15T08:15:01Z</time>
      </trkpt>
      <trkpt lat="47.43875" lon="6.92067">
        <ele>635.721</ele>
        <time>2015-08-15T08:15:04Z</time>
      </trkpt>
      <trkpt lat="47.43842" lon="6.92045">
        <ele>638.459</ele>
        <time>2015-08-15T08:15:11Z</time>
      </trkpt>
      <trkpt lat="47.43823" lon="6.92031">
        <ele>639.062</ele>
        <time>2015-08-15T08:15:16Z</time>
      </trkpt>
      <trkpt lat="47.43797" lon="6.92011">
        <ele>636.359</ele>
        <time>2015-08-15T08:15:23Z</time>
      </trkpt>
      <trkpt lat="47.43781" lon="6.91999">
        <ele>634.278</ele>
        <time>2015-08-15T08:15:28Z</time>
      </trkpt>
      <trkpt lat="47.43758" lon="6.91996">
        <ele>631.105</ele>
        <time>2015-08-15T08:15:35Z</time>
      </trkpt>
      <trkpt lat="47.43732" lon="6.91998">
        <ele>626.207</ele>
        <time>2015-08-15T08:15:42Z</time>
      </trkpt>
      <trkpt lat="47.43704" lon="6.92003">
        <ele>618.531</ele>
        <time>2015-08-15T08:15:47Z</time>
      </trkpt>
      <trkpt lat="47.43674" lon="6.9201">
        <ele>612.968</ele>
        <time>2015-08-15T08:15:52Z</time>
      </trkpt>
      <trkpt lat="47.4364" lon="6.9201">
        <ele>616.916</ele>
        <time>2015-08-15T08:15:58Z</time>
      </trkpt>
      <trkpt lat="47.43605" lon="6.92013">
        <ele>616.828</ele>
        <time>2015-08-15T08:16:04Z</time>
      </trkpt>
      <trkpt lat="47.43574" lon="6.92013">
        <ele>617.511</ele>
        <time>2015-08-15T08:16:09Z</time>
      </trkpt>
      <trkpt lat="47.43531" lon="6.92004">
        <ele>619.423</ele>
        <time>2015-08-15T08:16:15Z</time>
      </trkpt>
      <trkpt lat="47.43482" lon="6.9199">
        <ele>619.77</ele>
        <time>2015-08-15T08:16:21Z</time>
      </trkpt>
      <trkpt lat="47.43436" lon="6.91975">
        <ele>623.351</ele>
        <time>2015-08-15T08:16:26Z</time>
      </trkpt>
      <trkpt lat="47.43388" lon="6.91959">
        <ele>623.974</ele>
        <time>2015-08-15T08:16:32Z</time>
      </trkpt>
      <trkpt lat="47.43347" lon="6.91945">
        <ele>620.551</ele>
        <time>2015-08-15T08:16:38Z</time>
      </trkpt>
      <trkpt lat="47.43331" lon="6.91939">
        <ele>617.392</ele>
        <time>2015-08-15T08:16:41Z</time>
      </trkpt>
      <trkpt lat="47.43318" lon="6.91935">
        <ele>615.183</ele>
        <time>2015-08-15T08:16:44Z</time>
      </trkpt>
      <trkpt lat="47.43291" lon="6.91933">
        <ele>615.342</ele>
        <time>2015-08-15T08:16:50Z</time>
      </trkpt>
      <trkpt lat="47.43277" lon="6.91936">
        <ele>614.978</ele>
        <time>2015-08-15T08:16:53Z</time>
      </trkpt>
      <trkpt lat="47.43264" lon="6.9194">
        <ele>612.788</ele>
        <time>2015-08-15T08:16:56Z</time>
      </trkpt>
      <trkpt lat="47.4324" lon="6.91946">
        <ele>609.6</ele>
        <time>2015-08-15T08:17:02Z</time>
      </trkpt>
      <trkpt lat="47.43223" lon="6.91921">
        <ele>615.409</ele>
        <time>2015-08-15T08:17:07Z</time>
      </trkpt>
      <trkpt lat="47.43187" lon="6.9188">
        <ele>621.305</ele>
        <time>2015-08-15T08:17:16Z</time>
      </trkpt>
      <trkpt lat="47.43156" lon="6.91865">
        <ele>621.596</ele>
        <time>2015-08-15T08:17:21Z</time>
      </trkpt>
      <trkpt lat="47.43124" lon="6.91851">
        <ele>620.45</ele>
        <time>2015-08-15T08:17:26Z</time>
      </trkpt>
      <trkpt lat="47.43085" lon="6.91868">
        <ele>610.7</ele>
        <time>2015-08-15T08:17:32Z</time>
      </trkpt>
      <trkpt lat="47.4305" lon="6.91882">
        <ele>604.587</ele>
        <time>2015-08-15T08:17:38Z</time>
      </trkpt>
      <trkpt lat="47.43035" lon="6.91887">
        <ele>605.094</ele>
        <time>2015-08-15T08:17:41Z</time>
      </trkpt>
      <trkpt lat="47.43" lon="6.91902">
        <ele>608.539</ele>
        <time>2015-08-15T08:17:48Z</time>
      </trkpt>
      <trkpt lat="47.42977" lon="6.91932">
        <ele>612.081</ele>
        <time>2015-08-15T08:17:54Z</time>
      </trkpt>
      <trkpt lat="47.42965" lon="6.91956">
        <ele>613.794</ele>
        <time>2015-08-15T08:17:58Z</time>
      </trkpt>
      <trkpt lat="47.4296" lon="6.91976">
        <ele>614.306</ele>
        <time>2015-08-15T08:18:01Z</time>
      </trkpt>
      <trkpt lat="47.42954" lon="6.92008">
        <ele>614.566</ele>
        <time>2015-08-15T08:18:06Z</time>
      </trkpt>
      <trkpt lat="47.4295" lon="6.92026">
        <ele>614.679</ele>
        <time>2015-08-15T08:18:09Z</time>
      </trkpt>
      <trkpt lat="47.42944" lon="6.92058">
        <ele>616.267</ele>
        <time>2015-08-15T08:18:15Z</time>
      </trkpt>
      <trkpt lat="47.42937" lon="6.92094">
        <ele>618.308</ele>
        <time>2015-08-15T08:18:22Z</time>
      </trkpt>
      <trkpt lat="47.42933" lon="6.92111">
        <ele>619.468</ele>
        <time>2015-08-15T08:18:25Z</time>
      </trkpt>
      <trkpt lat="47.42924" lon="6.92143">
        <ele>624.044</ele>
        <time>2015-08-15T08:18:31Z</time>
      </trkpt>
      <trkpt lat="47.42916" lon="6.92174">
        <ele>624.886</ele>
        <time>2015-08-15T08:18:37Z</time>
      </trkpt>
      <trkpt lat="47.42913" lon="6.92189">
        <ele>624.201</ele>
        <time>2015-08-15T08:18:40Z</time>
      </trkpt>
      <trkpt lat="47.42908" lon="6.92204">
        <ele>623.491</ele>
        <time>2015-08-15T08:18:43Z</time>
      </trkpt>
      <trkpt lat="47.42898" lon="6.92235">
        <ele>621.161</ele>
        <time>2015-08-15T08:18:49Z</time>
      </trkpt>
      <trkpt lat="47.42887" lon="6.92263">
        <ele>621.027</ele>
        <time>2015-08-15T08:18:55Z</time>
      </trkpt>
      <trkpt lat="47.42874" lon="6.92294">
        <ele>621.726</ele>
        <time>2015-08-15T08:19:02Z</time>
      </trkpt>
      <trkpt lat="47.42859" lon="6.9232">
        <ele>622.042</ele>
        <time>2015-08-15T08:19:08Z</time>
      </trkpt>
      <trkpt lat="47.42852" lon="6.92329">
        <ele>622.26</ele>
        <time>2015-08-15T08:19:11Z</time>
      </trkpt>
      <trkpt lat="47.4283" lon="6.92355">
        <ele>623.798</ele>
        <time>2015-08-15T08:19:19Z</time>
      </trkpt>
      <trkpt lat="47.4281" lon="6.92376">
        <ele>625.684</ele>
        <time>2015-08-15T08:19:26Z</time>
      </trkpt>
      <trkpt lat="47.42801" lon="6.92385">
        <ele>626.685</ele>
        <time>2015-08-15T08:19:29Z</time>
      </trkpt>
      <trkpt lat="47.42791" lon="6.92395">
        <ele>628.43</ele>
        <time>2015-08-15T08:19:32Z</time>
      </trkpt>
      <trkpt lat="47.42772" lon="6.92417">
        <ele>629.719</ele>
        <time>2015-08-15T08:19:38Z</time>
      </trkpt>
      <trkpt lat="47.42763" lon="6.92427">
        <ele>629.487</ele>
        <time>2015-08-15T08:19:41Z</time>
      </trkpt>
      <trkpt lat="47.42746" lon="6.9245">
        <ele>631.271</ele>
        <time>2015-08-15T08:19:47Z</time>
      </trkpt>
      <trkpt lat="47.42729" lon="6.92474">
        <ele>632.03</ele>
        <time>2015-08-15T08:19:53Z</time>
      </trkpt>
      <trkpt lat="47.42712" lon="6.92512">
        <ele>632.693</ele>
        <time>2015-08-15T08:19:59Z</time>
      </trkpt>
      <trkpt lat="47.42699" lon="6.9255">
        <ele>634.212</ele>
        <time>2015-08-15T08:20:04Z</time>
      </trkpt>
      <trkpt lat="47.42684" lon="6.92606">
        <ele>634.315</ele>
        <time>2015-08-15T08:20:11Z</time>
      </trkpt>
      <trkpt lat="47.42676" lon="6.9265">
        <ele>632.226</ele>
        <time>2015-08-15T08:20:16Z</time>
      </trkpt>
      <trkpt lat="47.4267" lon="6.92704">
        <ele>631.558</ele>
        <time>2015-08-15T08:20:22Z</time>
      </trkpt>
      <trkpt lat="47.42666" lon="6.92753">
        <ele>628.961</ele>
        <time>2015-08-15T08:20:27Z</time>
      </trkpt>
      <trkpt lat="47.4266" lon="6.92813">
        <ele>624.76</ele>
        <time>2015-08-15T08:20:33Z</time>
      </trkpt>
      <trkpt lat="47.42654" lon="6.92863">
        <ele>623.189</ele>
        <time>2015-08-15T08:20:38Z</time>
      </trkpt>
      <trkpt lat="47.42647" lon="6.92929">
        <ele>621.33</ele>
        <time>2015-08-15T08:20:44Z</time>
      </trkpt>
      <trkpt lat="47.42641" lon="6.92982">
        <ele>620.538</ele>
        <time>2015-08-15T08:20:49Z</time>
      </trkpt>
      <trkpt lat="47.42635" lon="6.93042">
        <ele>620.76</ele>
        <time>2015-08-15T08:20:55Z</time>
      </trkpt>
      <trkpt lat="47.42632" lon="6.93073">
        <ele>621.224</ele>
        <time>2015-08-15T08:20:58Z</time>
      </trkpt>
      <trkpt lat="47.42629" lon="6.93101">
        <ele>622.48</ele>
        <time>2015-08-15T08:21:01Z</time>
      </trkpt>
      <trkpt lat="47.42626" lon="6.93148">
        <ele>624.432</ele>
        <time>2015-08-15T08:21:06Z</time>
      </trkpt>
      <trkpt lat="47.42622" lon="6.93204">
        <ele>627.279</ele>
        <time>2015-08-15T08:21:12Z</time>
      </trkpt>
      <trkpt lat="47.42619" lon="6.9326">
        <ele>626.21</ele>
        <time>2015-08-15T08:21:18Z</time>
      </trkpt>
      <trkpt lat="47.42614" lon="6.93324">
        <ele>621.378</ele>
        <time>2015-08-15T08:21:24Z</time>
      </trkpt>
      <trkpt lat="47.42609" lon="6.93385">
        <ele>619.197</ele>
        <time>2015-08-15T08:21:30Z</time>
      </trkpt>
      <trkpt lat="47.42602" lon="6.93447">
        <ele>624.646</ele>
        <time>2015-08-15T08:21:37Z</time>
      </trkpt>
      <trkpt lat="47.42593" lon="6.93486">
        <ele>624.184</ele>
        <time>2015-08-15T08:21:42Z</time>
      </trkpt>
      <trkpt lat="47.42585" lon="6.9352">
        <ele>622.919</ele>
        <time>2015-08-15T08:21:47Z</time>
      </trkpt>
      <trkpt lat="47.42578" lon="6.93549">
        <ele>622.288</ele>
        <time>2015-08-15T08:21:52Z</time>
      </trkpt>
      <trkpt lat="47.42569" lon="6.93586">
        <ele>623.605</ele>
        <time>2015-08-15T08:21:59Z</time>
      </trkpt>
      <trkpt lat="47.42556" lon="6.93619">
        <ele>625.932</ele>
        <time>2015-08-15T08:22:05Z</time>
      </trkpt>
      <trkpt lat="47.42543" lon="6.93649">
        <ele>627.201</ele>
        <time>2015-08-15T08:22:11Z</time>
      </trkpt>
      <trkpt lat="47.4253" lon="6.93672">
        <ele>624.013</ele>
        <time>2015-08-15T08:22:16Z</time>
      </trkpt>
      <trkpt lat="47.42523" lon="6.93686">
        <ele>624.8</ele>
        <time>2015-08-15T08:22:19Z</time>
      </trkpt>
      <trkpt lat="47.42515" lon="6.93702">
        <ele>626.582</ele>
        <time>2015-08-15T08:22:22Z</time>
      </trkpt>
      <trkpt lat="47.425" lon="6.93732">
        <ele>628.932</ele>
        <time>2015-08-15T08:22:28Z</time>
      </trkpt>
      <trkpt lat="47.42491" lon="6.93756">
        <ele>630.7</ele>
        <time>2015-08-15T08:22:33Z</time>
      </trkpt>
      <trkpt lat="47.42477" lon="6.93778">
        <ele>633.128</ele>
        <time>2015-08-15T08:22:38Z</time>
      </trkpt>
      <trkpt lat="47.42466" lon="6.93807">
        <ele>634.761</ele>
        <time>2015-08-15T08:22:44Z</time>
      </trkpt>
      <trkpt lat="47.42456" lon="6.93825">
        <ele>634.768</ele>
        <time>2015-08-15T08:22:48Z</time>
      </trkpt>
      <trkpt lat="47.42434" lon="6.93828">
        <ele>632.407</ele>
        <time>2015-08-15T08:22:54Z</time>
      </trkpt>
      <trkpt lat="47.42412" lon="6.9383">
        <ele>628.607</ele>
        <time>2015-08-15T08:22:59Z</time>
      </trkpt>
      <trkpt lat="47.42393" lon="6.9383">
        <ele>625.583</ele>
        <time>2015-08-15T08:23:03Z</time>
      </trkpt>
      <trkpt lat="47.42368" lon="6.93827">
        <ele>621.532</ele>
        <time>2015-08-15T08:23:08Z</time>
      </trkpt>
      <trkpt lat="47.42344" lon="6.93824">
        <ele>619.598</ele>
        <time>2015-08-15T08:23:14Z</time>
      </trkpt>
      <trkpt lat="47.42323" lon="6.93823">
        <ele>619.316</ele>
        <time>2015-08-15T08:23:19Z</time>
      </trkpt>
      <trkpt lat="47.4229" lon="6.93821">
        <ele>619.524</ele>
        <time>2015-08-15T08:23:25Z</time>
      </trkpt>
      <trkpt lat="47.42254" lon="6.93817">
        <ele>615.839</ele>
        <time>2015-08-15T08:23:33Z</time>
      </trkpt>
      <trkpt lat="47.4223" lon="6.93817">
        <ele>621.118</ele>
        <time>2015-08-15T08:23:38Z</time>
      </trkpt>
      <trkpt lat="47.42213" lon="6.93814">
        <ele>625.635</ele>
        <time>2015-08-15T08:23:43Z</time>
      </trkpt>
      <trkpt lat="47.42188" lon="6.93816">
        <ele>627.251</ele>
        <time>2015-08-15T08:23:50Z</time>
      </trkpt>
      <trkpt lat="47.4217" lon="6.93813">
        <ele>627.302</ele>
        <time>2015-08-15T08:23:55Z</time>
      </trkpt>
      <trkpt lat="47.42145" lon="6.93812">
        <ele>627.359</ele>
        <time>2015-08-15T08:24:02Z</time>
      </trkpt>
      <trkpt lat="47.42118" lon="6.93808">
        <ele>629.181</ele>
        <time>2015-08-15T08:24:10Z</time>
      </trkpt>
      <trkpt lat="47.42098" lon="6.93805">
        <ele>630.539</ele>
        <time>2015-08-15T08:24:15Z</time>
      </trkpt>
      <trkpt lat="47.42086" lon="6.93798">
        <ele>630.859</ele>
        <time>2015-08-15T08:24:19Z</time>
      </trkpt>
      <trkpt lat="47.42073" lon="6.93793">
        <ele>631.173</ele>
        <time>2015-08-15T08:24:23Z</time>
      </trkpt>
      <trkpt lat="47.42047" lon="6.93786">
        <ele>632.89</ele>
        <time>2015-08-15T08:24:30Z</time>
      </trkpt>
      <trkpt lat="47.42025" lon="6.93787">
        <ele>636.833</ele>
        <time>2015-08-15T08:24:36Z</time>
      </trkpt>
      <trkpt lat="47.41996" lon="6.93783">
        <ele>650.014</ele>
        <time>2015-08-15T08:24:43Z</time>
      </trkpt>
      <trkpt lat="47.41973" lon="6.93781">
        <ele>650.889</ele>
        <time>2015-08-15T08:24:49Z</time>
      </trkpt>
      <trkpt lat="47.41959" lon="6.93781">
        <ele>650.474</ele>
        <time>2015-08-15T08:24:52Z</time>
      </trkpt>
      <trkpt lat="47.41925" lon="6.93778">
        <ele>647.423</ele>
        <time>2015-08-15T08:24:59Z</time>
      </trkpt>
      <trkpt lat="47.41904" lon="6.93775">
        <ele>647.535</ele>
        <time>2015-08-15T08:25:04Z</time>
      </trkpt>
      <trkpt lat="47.41869" lon="6.93765">
        <ele>643.417</ele>
        <time>2015-08-15T08:25:11Z</time>
      </trkpt>
      <trkpt lat="47.41835" lon="6.93751">
        <ele>639.785</ele>
        <time>2015-08-15T08:25:18Z</time>
      </trkpt>
      <trkpt lat="47.41809" lon="6.93741">
        <ele>638.807</ele>
        <time>2015-08-15T08:25:23Z</time>
      </trkpt>
      <trkpt lat="47.41793" lon="6.93732">
        <ele>635.67</ele>
        <time>2015-08-15T08:25:26Z</time>
      </trkpt>
      <trkpt lat="47.41777" lon="6.93721">
        <ele>632.635</ele>
        <time>2015-08-15T08:25:29Z</time>
      </trkpt>
      <trkpt lat="47.41743" lon="6.93701">
        <ele>628.788</ele>
        <time>2015-08-15T08:25:35Z</time>
      </trkpt>
      <trkpt lat="47.4171" lon="6.93681">
        <ele>627.352</ele>
        <time>2015-08-15T08:25:41Z</time>
      </trkpt>
      <trkpt lat="47.41685" lon="6.93664">
        <ele>627.354</ele>
        <time>2015-08-15T08:25:46Z</time>
      </trkpt>
      <trkpt lat="47.41645" lon="6.93639">
        <ele>626.873</ele>
        <time>2015-08-15T08:25:53Z</time>
      </trkpt>
      <trkpt lat="47.41618" lon="6.93627">
        <ele>623.048</ele>
        <time>2015-08-15T08:25:58Z</time>
      </trkpt>
      <trkpt lat="47.41601" lon="6.93621">
        <ele>620.788</ele>
        <time>2015-08-15T08:26:01Z</time>
      </trkpt>
      <trkpt lat="47.41569" lon="6.93612">
        <ele>617.936</ele>
        <time>2015-08-15T08:26:06Z</time>
      </trkpt>
      <trkpt lat="47.41526" lon="6.936">
        <ele>616.59</ele>
        <time>2015-08-15T08:26:13Z</time>
      </trkpt>
      <trkpt lat="47.41499" lon="6.93591">
        <ele>619.714</ele>
        <time>2015-08-15T08:26:18Z</time>
      </trkpt>
      <trkpt lat="47.41483" lon="6.93585">
        <ele>621.918</ele>
        <time>2015-08-15T08:26:21Z</time>
      </trkpt>
      <trkpt lat="47.41467" lon="6.9358">
        <ele>623.584</ele>
        <time>2015-08-15T08:26:24Z</time>
      </trkpt>
      <trkpt lat="47.41452" lon="6.93574">
        <ele>625.133</ele>
        <time>2015-08-15T08:26:27Z</time>
      </trkpt>
      <trkpt lat="47.41425" lon="6.93566">
        <ele>626.106</ele>
        <time>2015-08-15T08:26:32Z</time>
      </trkpt>
      <trkpt lat="47.4141" lon="6.93561">
        <ele>626.268</ele>
        <time>2015-08-15T08:26:35Z</time>
      </trkpt>
      <trkpt lat="47.41389" lon="6.93555">
        <ele>627.36</ele>
        <time>2015-08-15T08:26:39Z</time>
      </trkpt>
      <trkpt lat="47.4136" lon="6.93521">
        <ele>624.593</ele>
        <time>2015-08-15T08:26:46Z</time>
      </trkpt>
      <trkpt lat="47.41332" lon="6.93465">
        <ele>624.969</ele>
        <time>2015-08-15T08:26:54Z</time>
      </trkpt>
      <trkpt lat="47.41318" lon="6.93429">
        <ele>626.217</ele>
        <time>2015-08-15T08:27:00Z</time>
      </trkpt>
      <trkpt lat="47.41308" lon="6.93378">
        <ele>627.012</ele>
        <time>2015-08-15T08:27:05Z</time>
      </trkpt>
      <trkpt lat="47.41301" lon="6.93324">
        <ele>635.358</ele>
        <time>2015-08-15T08:27:12Z</time>
      </trkpt>
      <trkpt lat="47.4129" lon="6.93275">
        <ele>634.341</ele>
        <time>2015-08-15T08:27:18Z</time>
      </trkpt>
      <trkpt lat="47.41284" lon="6.9323">
        <ele>635.675</ele>
        <time>2015-08-15T08:27:24Z</time>
      </trkpt>
      <trkpt lat="47.41277" lon="6.93193">
        <ele>637.504</ele>
        <time>2015-08-15T08:27:29Z</time>
      </trkpt>
      <trkpt lat="47.41267" lon="6.93146">
        <ele>642.105</ele>
        <time>2015-08-15T08:27:35Z</time>
      </trkpt>
      <trkpt lat="47.41263" lon="6.93115">
        <ele>644.41</ele>
        <time>2015-08-15T08:27:40Z</time>
      </trkpt>
      <trkpt lat="47.41257" lon="6.93073">
        <ele>643.05</ele>
        <time>2015-08-15T08:27:46Z</time>
      </trkpt>
      <trkpt lat="47.41254" lon="6.93052">
        <ele>638.194</ele>
        <time>2015-08-15T08:27:50Z</time>
      </trkpt>
      <trkpt lat="47.41242" lon="6.93018">
        <ele>633.675</ele>
        <time>2015-08-15T08:27:56Z</time>
      </trkpt>
      <trkpt lat="47.41228" lon="6.92985">
        <ele>631.055</ele>
        <time>2015-08-15T08:28:02Z</time>
      </trkpt>
      <trkpt lat="47.41219" lon="6.92942">
        <ele>632.986</ele>
        <time>2015-08-15T08:28:09Z</time>
      </trkpt>
      <trkpt lat="47.41208" lon="6.92909">
        <ele>633.77</ele>
        <time>2015-08-15T08:28:14Z</time>
      </trkpt>
      <trkpt lat="47.41184" lon="6.92895">
        <ele>634.779</ele>
        <time>2015-08-15T08:28:20Z</time>
      </trkpt>
      <trkpt lat="47.41154" lon="6.9289">
        <ele>635.95</ele>
        <time>2015-08-15T08:28:27Z</time>
      </trkpt>
      <trkpt lat="47.41122" lon="6.92886">
        <ele>640.206</ele>
        <time>2015-08-15T08:28:36Z</time>
      </trkpt>
      <trkpt lat="47.4109" lon="6.92879">
        <ele>640.704</ele>
        <time>2015-08-15T08:28:44Z</time>
      </trkpt>
      <trkpt lat="47.41063" lon="6.92875">
        <ele>633.294</ele>
        <time>2015-08-15T08:28:50Z</time>
      </trkpt>
      <trkpt lat="47.41045" lon="6.92868">
        <ele>629.408</ele>
        <time>2015-08-15T08:28:55Z</time>
      </trkpt>
      <trkpt lat="47.4102" lon="6.9285">
        <ele>637.337</ele>
        <time>2015-08-15T08:29:02Z</time>
      </trkpt>
      <trkpt lat="47.40992" lon="6.92827">
        <ele>637.386</ele>
        <time>2015-08-15T08:29:09Z</time>
      </trkpt>
      <trkpt lat="47.40963" lon="6.92812">
        <ele>633.35</ele>
        <time>2015-08-15T08:29:16Z</time>
      </trkpt>
      <trkpt lat="47.40935" lon="6.92801">
        <ele>631.513</ele>
        <time>2015-08-15T08:29:22Z</time>
      </trkpt>
      <trkpt lat="47.40906" lon="6.92793">
        <ele>629.543</ele>
        <time>2015-08-15T08:29:28Z</time>
      </trkpt>
      <trkpt lat="47.40888" lon="6.92782">
        <ele>630.591</ele>
        <time>2015-08-15T08:29:33Z</time>
      </trkpt>
      <trkpt lat="47.4085" lon="6.92746">
        <ele>629.326</ele>
        <time>2015-08-15T08:29:41Z</time>
      </trkpt>
      <trkpt lat="47.4082" lon="6.92723">
        <ele>625.279</ele>
        <time>2015-08-15T08:29:47Z</time>
      </trkpt>
      <trkpt lat="47.40795" lon="6.92702">
        <ele>621.191</ele>
        <time>2015-08-15T08:29:53Z</time>
      </trkpt>
      <trkpt lat="47.40775" lon="6.92683">
        <ele>624.134</ele>
        <time>2015-08-15T08:29:59Z</time>
      </trkpt>
      <trkpt lat="47.40746" lon="6.92669">
        <ele>622.284</ele>
        <time>2015-08-15T08:30:07Z</time>
      </trkpt>
      <trkpt lat="47.40728" lon="6.92668">
        <ele>621.696</ele>
        <time>2015-08-15T08:30:12Z</time>
      </trkpt>
      <trkpt lat="47.40716" lon="6.92669">
        <ele>621.438</ele>
        <time>2015-08-15T08:30:16Z</time>
      </trkpt>
      <trkpt lat="47.40688" lon="6.9268">
        <ele>621.144</ele>
        <time>2015-08-15T08:30:24Z</time>
      </trkpt>
      <trkpt lat="47.40666" lon="6.92688">
        <ele>621.373</ele>
        <time>2015-08-15T08:30:32Z</time>
      </trkpt>
      <trkpt lat="47.40648" lon="6.9268">
        <ele>622.885</ele>
        <time>2015-08-15T08:30:38Z</time>
      </trkpt>
      <trkpt lat="47.40628" lon="6.92666">
        <ele>623.775</ele>
        <time>2015-08-15T08:30:45Z</time>
      </trkpt>
      <trkpt lat="47.40605" lon="6.92634">
        <ele>621.558</ele>
        <time>2015-08-15T08:30:54Z</time>
      </trkpt>
      <trkpt lat="47.40592" lon="6.92612">
        <ele>619.077</ele>
        <time>2015-08-15T08:30:59Z</time>
      </trkpt>
      <trkpt lat="47.40577" lon="6.92603">
        <ele>618.739</ele>
        <time>2015-08-15T08:31:06Z</time>
      </trkpt>
      <trkpt lat="47.40576" lon="6.92631">
        <ele>618.985</ele>
        <time>2015-08-15T08:31:13Z</time>
      </trkpt>
      <trkpt lat="47.40576" lon="6.92665">
        <ele>619.399</ele>
        <time>2015-08-15T08:31:21Z</time>
      </trkpt>
      <trkpt lat="47.40549" lon="6.92656">
        <ele>619.051</ele>
        <time>2015-08-15T08:31:34Z</time>
      </trkpt>
      <trkpt lat="47.40539" lon="6.92655">
        <ele>618.437</ele>
        <time>2015-08-15T08:31:38Z</time>
      </trkpt>
      <trkpt lat="47.40523" lon="6.92652">
        <ele>617.555</ele>
        <time>2015-08-15T08:31:44Z</time>
      </trkpt>
      <trkpt lat="47.40505" lon="6.92648">
        <ele>616.615</ele>
        <time>2015-08-15T08:31:52Z</time>
      </trkpt>
      <trkpt lat="47.40489" lon="6.92642">
        <ele>616.229</ele>
        <time>2015-08-15T08:32:00Z</time>
      </trkpt>
      <trkpt lat="47.40465" lon="6.92639">
        <ele>616.763</ele>
        <time>2015-08-15T08:32:11Z</time>
      </trkpt>
      <trkpt lat="47.40454" lon="6.92636">
        <ele>616.868</ele>
        <time>2015-08-15T08:32:16Z</time>
      </trkpt>
      <trkpt lat="47.40419" lon="6.92633">
        <ele>615.676</ele>
        <time>2015-08-15T08:32:31Z</time>
      </trkpt>
      <trkpt lat="47.40393" lon="6.92635">
        <ele>616.61</ele>
        <time>2015-08-15T08:32:41Z</time>
      </trkpt>
      <trkpt lat="47.40374" lon="6.92641">
        <ele>616.731</ele>
        <time>2015-08-15T08:32:48Z</time>
      </trkpt>
      <trkpt lat="47.40356" lon="6.92646">
        <ele>616.312</ele>
        <time>2015-08-15T08:32:55Z</time>
      </trkpt>
      <trkpt lat="47.40326" lon="6.92633">
        <ele>614.308</ele>
        <time>2015-08-15T08:33:04Z</time>
      </trkpt>
      <trkpt lat="47.40309" lon="6.92632">
        <ele>614.249</ele>
        <time>2015-08-15T08:33:11Z</time>
      </trkpt>
      <trkpt lat="47.40279" lon="6.92624">
        <ele>615.196</ele>
        <time>2015-08-15T08:33:20Z</time>
      </trkpt>
      <trkpt lat="47.40259" lon="6.9262">
        <ele>616.503</ele>
        <time>2015-08-15T08:33:25Z</time>
      </trkpt>
      <trkpt lat="47.40242" lon="6.92599">
        <ele>615.715</ele>
        <time>2015-08-15T08:33:32Z</time>
      </trkpt>
      <trkpt lat="47.40234" lon="6.92565">
        <ele>619.101</ele>
        <time>2015-08-15T08:33:39Z</time>
      </trkpt>
      <trkpt lat="47.40207" lon="6.92559">
        <ele>619.956</ele>
        <time>2015-08-15T08:33:45Z</time>
      </trkpt>
      <trkpt lat="47.4018" lon="6.92563">
        <ele>622.867</ele>
        <time>2015-08-15T08:33:51Z</time>
      </trkpt>
      <trkpt lat="47.40162" lon="6.92568">
        <ele>626.494</ele>
        <time>2015-08-15T08:33:56Z</time>
      </trkpt>
      <trkpt lat="47.40145" lon="6.92572">
        <ele>628.476</ele>
        <time>2015-08-15T08:34:00Z</time>
      </trkpt>
      <trkpt lat="47.40124" lon="6.92577">
        <ele>630.292</ele>
        <time>2015-08-15T08:34:05Z</time>
      </trkpt>
      <trkpt lat="47.401" lon="6.92583">
        <ele>630.709</ele>
        <time>2015-08-15T08:34:11Z</time>
      </trkpt>
      <trkpt lat="47.40079" lon="6.92588">
        <ele>630.586</ele>
        <time>2015-08-15T08:34:16Z</time>
      </trkpt>
      <trkpt lat="47.40059" lon="6.92594">
        <ele>629.936</ele>
        <time>2015-08-15T08:34:21Z</time>
      </trkpt>
      <trkpt lat="47.4003" lon="6.92611">
        <ele>626.943</ele>
        <time>2015-08-15T08:34:30Z</time>
      </trkpt>
      <trkpt lat="47.40008" lon="6.92621">
        <ele>623.812</ele>
        <time>2015-08-15T08:34:36Z</time>
      </trkpt>
      <trkpt lat="47.39983" lon="6.92627">
        <ele>620.708</ele>
        <time>2015-08-15T08:34:42Z</time>
      </trkpt>
      <trkpt lat="47.39948" lon="6.92624">
        <ele>619.353</ele>
        <time>2015-08-15T08:34:50Z</time>
      </trkpt>
      <trkpt lat="47.39919" lon="6.92613">
        <ele>620.269</ele>
        <time>2015-08-15T08:34:56Z</time>
      </trkpt>
      <trkpt lat="47.39892" lon="6.92602">
        <ele>619.485</ele>
        <time>2015-08-15T08:35:01Z</time>
      </trkpt>
      <trkpt lat="47.39864" lon="6.92591">
        <ele>619.084</ele>
        <time>2015-08-15T08:35:06Z</time>
      </trkpt>
      <trkpt lat="47.39843" lon="6.92582">
        <ele>617.771</ele>
        <time>2015-08-15T08:35:10Z</time>
      </trkpt>
      <trkpt lat="47.39814" lon="6.92569">
        <ele>615.535</ele>
        <time>2015-08-15T08:35:15Z</time>
      </trkpt>
      <trkpt lat="47.39798" lon="6.92561">
        <ele>615.071</ele>
        <time>2015-08-15T08:35:18Z</time>
      </trkpt>
      <trkpt lat="47.3978" lon="6.92552">
        <ele>616.906</ele>
        <time>2015-08-15T08:35:22Z</time>
      </trkpt>
      <trkpt lat="47.39743" lon="6.9254">
        <ele>615.12</ele>
        <time>2015-08-15T08:35:29Z</time>
      </trkpt>
      <trkpt lat="47.39714" lon="6.92538">
        <ele>611.556</ele>
        <time>2015-08-15T08:35:35Z</time>
      </trkpt>
      <trkpt lat="47.39685" lon="6.92532">
        <ele>609.992</ele>
        <time>2015-08-15T08:35:41Z</time>
      </trkpt>
      <trkpt lat="47.39662" lon="6.92525">
        <ele>613.995</ele>
        <time>2015-08-15T08:35:46Z</time>
      </trkpt>
      <trkpt lat="47.39643" lon="6.92517">
        <ele>614.692</ele>
        <time>2015-08-15T08:35:51Z</time>
      </trkpt>
      <trkpt lat="47.39618" lon="6.9251">
        <ele>615.096</ele>
        <time>2015-08-15T08:35:57Z</time>
      </trkpt>
      <trkpt lat="47.39586" lon="6.92508">
        <ele>616.671</ele>
        <time>2015-08-15T08:36:04Z</time>
      </trkpt>
      <trkpt lat="47.39559" lon="6.92507">
        <ele>616.194</ele>
        <time>2015-08-15T08:36:11Z</time>
      </trkpt>
      <trkpt lat="47.39534" lon="6.92504">
        <ele>622.985</ele>
        <time>2015-08-15T08:36:18Z</time>
      </trkpt>
      <trkpt lat="47.39514" lon="6.92507">
        <ele>627.939</ele>
        <time>2015-08-15T08:36:24Z</time>
      </trkpt>
      <trkpt lat="47.39488" lon="6.92512">
        <ele>631.337</ele>
        <time>2015-08-15T08:36:31Z</time>
      </trkpt>
      <trkpt lat="47.39466" lon="6.9252">
        <ele>628.904</ele>
        <time>2015-08-15T08:36:36Z</time>
      </trkpt>
      <trkpt lat="47.3944" lon="6.92535">
        <ele>625.646</ele>
        <time>2015-08-15T08:36:41Z</time>
      </trkpt>
      <trkpt lat="47.39402" lon="6.92546">
        <ele>624.805</ele>
        <time>2015-08-15T08:36:47Z</time>
      </trkpt>
      <trkpt lat="47.39362" lon="6.92542">
        <ele>625.738</ele>
        <time>2015-08-15T08:36:52Z</time>
      </trkpt>
      <trkpt lat="47.39284" lon="6.92546">
        <ele>616.466</ele>
        <time>2015-08-15T08:37:00Z</time>
      </trkpt>
      <trkpt lat="47.39218" lon="6.92588">
        <ele>607.112</ele>
        <time>2015-08-15T08:37:09Z</time>
      </trkpt>
      <trkpt lat="47.39164" lon="6.92622">
        <ele>606.111</ele>
        <time>2015-08-15T08:37:15Z</time>
      </trkpt>
      <trkpt lat="47.39122" lon="6.92647">
        <ele>609.561</ele>
        <time>2015-08-15T08:37:21Z</time>
      </trkpt>
      <trkpt lat="47.39085" lon="6.92655">
        <ele>614.234</ele>
        <time>2015-08-15T08:37:26Z</time>
      </trkpt>
      <trkpt lat="47.39042" lon="6.92651">
        <ele>616.411</ele>
        <time>2015-08-15T08:37:33Z</time>
      </trkpt>
      <trkpt lat="47.39015" lon="6.92645">
        <ele>614.188</ele>
        <time>2015-08-15T08:37:38Z</time>
      </trkpt>
      <trkpt lat="47.39002" lon="6.9264">
        <ele>611.234</ele>
        <time>2015-08-15T08:37:41Z</time>
      </trkpt>
      <trkpt lat="47.38979" lon="6.92629">
        <ele>609.644</ele>
        <time>2015-08-15T08:37:46Z</time>
      </trkpt>
      <trkpt lat="47.38953" lon="6.92622">
        <ele>612.079</ele>
        <time>2015-08-15T08:37:52Z</time>
      </trkpt>
      <trkpt lat="47.3893" lon="6.92626">
        <ele>614.223</ele>
        <time>2015-08-15T08:37:59Z</time>
      </trkpt>
      <trkpt lat="47.38889" lon="6.92636">
        <ele>609.417</ele>
        <time>2015-08-15T08:38:07Z</time>
      </trkpt>
      <trkpt lat="47.38841" lon="6.92643">
        <ele>602.519</ele>
        <time>2015-08-15T08:38:13Z</time>
      </trkpt>
      <trkpt lat="47.38804" lon="6.92618">
        <ele>600.122</ele>
        <time>2015-08-15T08:38:19Z</time>
      </trkpt>
      <trkpt lat="47.38788" lon="6.92602">
        <ele>600.254</ele>
        <time>2015-08-15T08:38:27Z</time>
      </trkpt>
      <trkpt lat="47.38766" lon="6.92581">
        <ele>602</ele>
        <time>2015-08-15T08:38:37Z</time>
      </trkpt>
      <trkpt lat="47.38747" lon="6.92562">
        <ele>602.76</ele>
        <time>2015-08-15T08:38:44Z</time>
      </trkpt>
      <trkpt lat="47.38724" lon="6.92561">
        <ele>604.116</ele>
        <time>2015-08-15T08:38:52Z</time>
      </trkpt>
      <trkpt lat="47.38697" lon="6.92559">
        <ele>600.857</ele>
        <time>2015-08-15T08:38:59Z</time>
      </trkpt>
      <trkpt lat="47.38674" lon="6.92548">
        <ele>600.077</ele>
        <time>2015-08-15T08:39:07Z</time>
      </trkpt>
      <trkpt lat="47.38657" lon="6.92549">
        <ele>599.559</ele>
        <time>2015-08-15T08:39:15Z</time>
      </trkpt>
      <trkpt lat="47.38644" lon="6.92552">
        <ele>600.062</ele>
        <time>2015-08-15T08:39:22Z</time>
      </trkpt>
      <trkpt lat="47.38636" lon="6.92554">
        <ele>600.828</ele>
        <time>2015-08-15T08:39:28Z</time>
      </trkpt>
      <trkpt lat="47.3861" lon="6.92551">
        <ele>604.435</ele>
        <time>2015-08-15T08:39:44Z</time>
      </trkpt>
      <trkpt lat="47.3859" lon="6.92558">
        <ele>605.916</ele>
        <time>2015-08-15T08:39:54Z</time>
      </trkpt>
      <trkpt lat="47.38576" lon="6.92565">
        <ele>609.449</ele>
        <time>2015-08-15T08:40:04Z</time>
      </trkpt>
      <trkpt lat="47.38558" lon="6.92567">
        <ele>612.441</ele>
        <time>2015-08-15T08:40:14Z</time>
      </trkpt>
      <trkpt lat="47.38533" lon="6.92585">
        <ele>614.417</ele>
        <time>2015-08-15T08:40:30Z</time>
      </trkpt>
      <trkpt lat="47.38517" lon="6.92591">
        <ele>615.277</ele>
        <time>2015-08-15T08:40:40Z</time>
      </trkpt>
      <trkpt lat="47.38499" lon="6.92589">
        <ele>616.592</ele>
        <time>2015-08-15T08:40:50Z</time>
      </trkpt>
      <trkpt lat="47.38486" lon="6.9259">
        <ele>618.727</ele>
        <time>2015-08-15T08:41:02Z</time>
      </trkpt>
      <trkpt lat="47.38462" lon="6.9258">
        <ele>623.842</ele>
        <time>2015-08-15T08:41:18Z</time>
      </trkpt>
      <trkpt lat="47.38448" lon="6.9257">
        <ele>628.235</ele>
        <time>2015-08-15T08:41:29Z</time>
      </trkpt>
      <trkpt lat="47.38431" lon="6.9257">
        <ele>635.151</ele>
        <time>2015-08-15T08:41:42Z</time>
      </trkpt>
      <trkpt lat="47.38413" lon="6.92575">
        <ele>641.334</ele>
        <time>2015-08-15T08:41:54Z</time>
      </trkpt>
      <trkpt lat="47.38389" lon="6.92593">
        <ele>644.271</ele>
        <time>2015-08-15T08:42:09Z</time>
      </trkpt>
      <trkpt lat="47.38374" lon="6.92595">
        <ele>643.985</ele>
        <time>2015-08-15T08:42:20Z</time>
      </trkpt>
      <trkpt lat="47.38362" lon="6.92602">
        <ele>644.497</ele>
        <time>2015-08-15T08:42:29Z</time>
      </trkpt>
      <trkpt lat="47.38348" lon="6.92601">
        <ele>645.154</ele>
        <time>2015-08-15T08:42:37Z</time>
      </trkpt>
      <trkpt lat="47.38348" lon="6.92601">
        <ele>602.8</ele>
        <time>2015-08-15T08:42:45Z</time>
      </trkpt>
      <trkpt lat="47.38348" lon="6.92601">
        <ele>602.8</ele>
        <time>2015-08-15T08:42:47Z</time>
      </trkpt>
      <trkpt lat="47.38342" lon="6.92594">
        <ele>645.879</ele>
        <time>2015-08-15T08:42:47Z</time>
      </trkpt>
      <trkpt lat="47.38336" lon="6.92589">
        <ele>646.363</ele>
        <time>2015-08-15T08:42:53Z</time>
      </trkpt>
      <trkpt lat="47.38336" lon="6.92589">
        <ele>606.6</ele>
        <time>2015-08-15T08:42:59Z</time>
      </trkpt>
      <trkpt lat="47.38336" lon="6.92589">
        <ele>606.6</ele>
        <time>2015-08-15T08:43:06Z</time>
      </trkpt>
      <trkpt lat="47.38328" lon="6.92577">
        <ele>648.342</ele>
        <time>2015-08-15T08:43:06Z</time>
      </trkpt>
      <trkpt lat="47.3832" lon="6.92567">
        <ele>651.314</ele>
        <time>2015-08-15T08:43:14Z</time>
      </trkpt>
      <trkpt lat="47.3832" lon="6.92567">
        <ele>608</ele>
        <time>2015-08-15T08:43:21Z</time>
      </trkpt>
      <trkpt lat="47.3832" lon="6.92567">
        <ele>608</ele>
        <time>2015-08-15T08:43:23Z</time>
      </trkpt>
      <trkpt lat="47.38315" lon="6.92557">
        <ele>652.56</ele>
        <time>2015-08-15T08:43:23Z</time>
      </trkpt>
      <trkpt lat="47.38302" lon="6.92544">
        <ele>654.178</ele>
        <time>2015-08-15T08:43:29Z</time>
      </trkpt>
      <trkpt lat="47.38291" lon="6.92541">
        <ele>656.198</ele>
        <time>2015-08-15T08:43:35Z</time>
      </trkpt>
      <trkpt lat="47.38273" lon="6.92534">
        <ele>661.51</ele>
        <time>2015-08-15T08:43:48Z</time>
      </trkpt>
      <trkpt lat="47.38258" lon="6.92524">
        <ele>666.142</ele>
        <time>2015-08-15T08:44:01Z</time>
      </trkpt>
      <trkpt lat="47.3824" lon="6.92508">
        <ele>668.82</ele>
        <time>2015-08-15T08:44:17Z</time>
      </trkpt>
      <trkpt lat="47.3823" lon="6.92504">
        <ele>668.556</ele>
        <time>2015-08-15T08:44:24Z</time>
      </trkpt>
      <trkpt lat="47.3823" lon="6.92504">
        <ele>620.2</ele>
        <time>2015-08-15T08:44:31Z</time>
      </trkpt>
      <trkpt lat="47.3823" lon="6.92504">
        <ele>620.2</ele>
        <time>2015-08-15T08:44:35Z</time>
      </trkpt>
      <trkpt lat="47.38225" lon="6.92488">
        <ele>669.621</ele>
        <time>2015-08-15T08:44:35Z</time>
      </trkpt>
      <trkpt lat="47.38215" lon="6.92473">
        <ele>673.732</ele>
        <time>2015-08-15T08:44:41Z</time>
      </trkpt>
      <trkpt lat="47.38206" lon="6.92467">
        <ele>676.45</ele>
        <time>2015-08-15T08:44:49Z</time>
      </trkpt>
      <trkpt lat="47.38198" lon="6.9246">
        <ele>676.985</ele>
        <time>2015-08-15T08:44:58Z</time>
      </trkpt>
      <trkpt lat="47.38185" lon="6.92455">
        <ele>676.616</ele>
        <time>2015-08-15T08:45:09Z</time>
      </trkpt>
      <trkpt lat="47.38171" lon="6.92456">
        <ele>676.156</ele>
        <time>2015-08-15T08:45:21Z</time>
      </trkpt>
      <trkpt lat="47.38154" lon="6.92445">
        <ele>677.147</ele>
        <time>2015-08-15T08:45:33Z</time>
      </trkpt>
      <trkpt lat="47.38131" lon="6.92428">
        <ele>678.916</ele>
        <time>2015-08-15T08:45:47Z</time>
      </trkpt>
      <trkpt lat="47.38114" lon="6.9242">
        <ele>677.42</ele>
        <time>2015-08-15T08:45:59Z</time>
      </trkpt>
      <trkpt lat="47.38092" lon="6.92393">
        <ele>677.008</ele>
        <time>2015-08-15T08:46:07Z</time>
      </trkpt>
      <trkpt lat="47.38067" lon="6.92366">
        <ele>682.783</ele>
        <time>2015-08-15T08:46:15Z</time>
      </trkpt>
      <trkpt lat="47.38053" lon="6.92363">
        <ele>684.133</ele>
        <time>2015-08-15T08:46:20Z</time>
      </trkpt>
      <trkpt lat="47.38023" lon="6.92354">
        <ele>691.054</ele>
        <time>2015-08-15T08:46:28Z</time>
      </trkpt>
      <trkpt lat="47.37993" lon="6.92346">
        <ele>689.309</ele>
        <time>2015-08-15T08:46:34Z</time>
      </trkpt>
      <trkpt lat="47.37971" lon="6.92343">
        <ele>684.856</ele>
        <time>2015-08-15T08:46:39Z</time>
      </trkpt>
      <trkpt lat="47.37939" lon="6.92334">
        <ele>683.881</ele>
        <time>2015-08-15T08:46:45Z</time>
      </trkpt>
      <trkpt lat="47.37899" lon="6.92313">
        <ele>686.87</ele>
        <time>2015-08-15T08:46:53Z</time>
      </trkpt>
      <trkpt lat="47.37868" lon="6.92301">
        <ele>686.907</ele>
        <time>2015-08-15T08:46:58Z</time>
      </trkpt>
      <trkpt lat="47.37837" lon="6.92282">
        <ele>684.07</ele>
        <time>2015-08-15T08:47:04Z</time>
      </trkpt>
      <trkpt lat="47.37805" lon="6.92248">
        <ele>674.303</ele>
        <time>2015-08-15T08:47:09Z</time>
      </trkpt>
      <trkpt lat="47.3777" lon="6.92242">
        <ele>665.904</ele>
        <time>2015-08-15T08:47:14Z</time>
      </trkpt>
      <trkpt lat="47.37732" lon="6.92252">
        <ele>660.443</ele>
        <time>2015-08-15T08:47:20Z</time>
      </trkpt>
      <trkpt lat="47.37699" lon="6.92251">
        <ele>659.129</ele>
        <time>2015-08-15T08:47:26Z</time>
      </trkpt>
      <trkpt lat="47.37657" lon="6.92218">
        <ele>659.403</ele>
        <time>2015-08-15T08:47:32Z</time>
      </trkpt>
      <trkpt lat="47.37621" lon="6.92208">
        <ele>650.219</ele>
        <time>2015-08-15T08:47:37Z</time>
      </trkpt>
      <trkpt lat="47.3757" lon="6.92188">
        <ele>642.535</ele>
        <time>2015-08-15T08:47:43Z</time>
      </trkpt>
      <trkpt lat="47.37536" lon="6.92172">
        <ele>640.704</ele>
        <time>2015-08-15T08:47:48Z</time>
      </trkpt>
      <trkpt lat="47.37523" lon="6.92127">
        <ele>643.975</ele>
        <time>2015-08-15T08:47:55Z</time>
      </trkpt>
      <trkpt lat="47.37516" lon="6.92099">
        <ele>646.552</ele>
        <time>2015-08-15T08:48:00Z</time>
      </trkpt>
      <trkpt lat="47.37511" lon="6.92055">
        <ele>645.279</ele>
        <time>2015-08-15T08:48:06Z</time>
      </trkpt>
      <trkpt lat="47.37507" lon="6.92003">
        <ele>643.741</ele>
        <time>2015-08-15T08:48:12Z</time>
      </trkpt>
      <trkpt lat="47.37502" lon="6.91952">
        <ele>644.728</ele>
        <time>2015-08-15T08:48:18Z</time>
      </trkpt>
      <trkpt lat="47.37497" lon="6.91916">
        <ele>645.795</ele>
        <time>2015-08-15T08:48:22Z</time>
      </trkpt>
      <trkpt lat="47.37492" lon="6.91871">
        <ele>648.109</ele>
        <time>2015-08-15T08:48:27Z</time>
      </trkpt>
      <trkpt lat="47.37476" lon="6.91827">
        <ele>648.747</ele>
        <time>2015-08-15T08:48:33Z</time>
      </trkpt>
      <trkpt lat="47.37463" lon="6.91806">
        <ele>646.694</ele>
        <time>2015-08-15T08:48:36Z</time>
      </trkpt>
      <trkpt lat="47.37421" lon="6.91786">
        <ele>643.022</ele>
        <time>2015-08-15T08:48:43Z</time>
      </trkpt>
      <trkpt lat="47.37376" lon="6.91799">
        <ele>645.137</ele>
        <time>2015-08-15T08:48:49Z</time>
      </trkpt>
      <trkpt lat="47.37344" lon="6.91805">
        <ele>642.448</ele>
        <time>2015-08-15T08:48:54Z</time>
      </trkpt>
      <trkpt lat="47.37302" lon="6.91815">
        <ele>637.813</ele>
        <time>2015-08-15T08:49:00Z</time>
      </trkpt>
      <trkpt lat="47.37249" lon="6.9181">
        <ele>628.469</ele>
        <time>2015-08-15T08:49:08Z</time>
      </trkpt>
      <trkpt lat="47.37215" lon="6.91796">
        <ele>623.472</ele>
        <time>2015-08-15T08:49:14Z</time>
      </trkpt>
      <trkpt lat="47.37184" lon="6.91781">
        <ele>625.359</ele>
        <time>2015-08-15T08:49:19Z</time>
      </trkpt>
      <trkpt lat="47.37153" lon="6.91765">
        <ele>626.781</ele>
        <time>2015-08-15T08:49:25Z</time>
      </trkpt>
      <trkpt lat="47.37116" lon="6.91748">
        <ele>623.672</ele>
        <time>2015-08-15T08:49:31Z</time>
      </trkpt>
      <trkpt lat="47.37097" lon="6.9174">
        <ele>624.621</ele>
        <time>2015-08-15T08:49:34Z</time>
      </trkpt>
      <trkpt lat="47.37061" lon="6.91722">
        <ele>627.782</ele>
        <time>2015-08-15T08:49:40Z</time>
      </trkpt>
      <trkpt lat="47.37028" lon="6.91696">
        <ele>628.238</ele>
        <time>2015-08-15T08:49:46Z</time>
      </trkpt>
      <trkpt lat="47.36994" lon="6.9166">
        <ele>621.306</ele>
        <time>2015-08-15T08:49:53Z</time>
      </trkpt>
      <trkpt lat="47.36961" lon="6.9163">
        <ele>615.715</ele>
        <time>2015-08-15T08:50:00Z</time>
      </trkpt>
      <trkpt lat="47.36925" lon="6.91618">
        <ele>623.385</ele>
        <time>2015-08-15T08:50:07Z</time>
      </trkpt>
      <trkpt lat="47.36905" lon="6.91612">
        <ele>624.517</ele>
        <time>2015-08-15T08:50:12Z</time>
      </trkpt>
      <trkpt lat="47.36896" lon="6.9161">
        <ele>624.651</ele>
        <time>2015-08-15T08:50:15Z</time>
      </trkpt>
      <trkpt lat="47.36883" lon="6.91605">
        <ele>625.24</ele>
        <time>2015-08-15T08:50:20Z</time>
      </trkpt>
      <trkpt lat="47.3686" lon="6.91604">
        <ele>626.448</ele>
        <time>2015-08-15T08:50:29Z</time>
      </trkpt>
      <trkpt lat="47.36833" lon="6.91603">
        <ele>627.62</ele>
        <time>2015-08-15T08:50:40Z</time>
      </trkpt>
      <trkpt lat="47.36817" lon="6.91601">
        <ele>629.534</ele>
        <time>2015-08-15T08:50:46Z</time>
      </trkpt>
      <trkpt lat="47.36785" lon="6.91593">
        <ele>631.557</ele>
        <time>2015-08-15T08:50:55Z</time>
      </trkpt>
      <trkpt lat="47.36773" lon="6.9159">
        <ele>631.935</ele>
        <time>2015-08-15T08:50:58Z</time>
      </trkpt>
      <trkpt lat="47.36761" lon="6.91586">
        <ele>632.393</ele>
        <time>2015-08-15T08:51:02Z</time>
      </trkpt>
      <trkpt lat="47.36735" lon="6.9158">
        <ele>632.503</ele>
        <time>2015-08-15T08:51:10Z</time>
      </trkpt>
      <trkpt lat="47.3671" lon="6.91576">
        <ele>634.019</ele>
        <time>2015-08-15T08:51:17Z</time>
      </trkpt>
      <trkpt lat="47.36685" lon="6.91578">
        <ele>634.536</ele>
        <time>2015-08-15T08:51:23Z</time>
      </trkpt>
      <trkpt lat="47.36658" lon="6.91583">
        <ele>632.407</ele>
        <time>2015-08-15T08:51:29Z</time>
      </trkpt>
      <trkpt lat="47.3663" lon="6.9159">
        <ele>635.832</ele>
        <time>2015-08-15T08:51:35Z</time>
      </trkpt>
      <trkpt lat="47.36611" lon="6.91595">
        <ele>637.375</ele>
        <time>2015-08-15T08:51:40Z</time>
      </trkpt>
      <trkpt lat="47.36592" lon="6.91602">
        <ele>636.411</ele>
        <time>2015-08-15T08:51:45Z</time>
      </trkpt>
      <trkpt lat="47.36576" lon="6.9161">
        <ele>636.563</ele>
        <time>2015-08-15T08:51:50Z</time>
      </trkpt>
      <trkpt lat="47.36562" lon="6.9162">
        <ele>636.466</ele>
        <time>2015-08-15T08:51:55Z</time>
      </trkpt>
      <trkpt lat="47.3654" lon="6.91637">
        <ele>635.408</ele>
        <time>2015-08-15T08:52:03Z</time>
      </trkpt>
      <trkpt lat="47.36518" lon="6.9165">
        <ele>633.928</ele>
        <time>2015-08-15T08:52:13Z</time>
      </trkpt>
      <trkpt lat="47.36503" lon="6.91659">
        <ele>634.089</ele>
        <time>2015-08-15T08:52:20Z</time>
      </trkpt>
      <trkpt lat="47.36489" lon="6.91665">
        <ele>633.866</ele>
        <time>2015-08-15T08:52:26Z</time>
      </trkpt>
      <trkpt lat="47.36471" lon="6.91672">
        <ele>634.445</ele>
        <time>2015-08-15T08:52:35Z</time>
      </trkpt>
      <trkpt lat="47.36452" lon="6.91677">
        <ele>634.66</ele>
        <time>2015-08-15T08:52:44Z</time>
      </trkpt>
      <trkpt lat="47.36436" lon="6.91684">
        <ele>635.026</ele>
        <time>2015-08-15T08:52:54Z</time>
      </trkpt>
      <trkpt lat="47.36422" lon="6.91684">
        <ele>638.024</ele>
        <time>2015-08-15T08:53:04Z</time>
      </trkpt>
      <trkpt lat="47.36393" lon="6.91676">
        <ele>642.505</ele>
        <time>2015-08-15T08:53:18Z</time>
      </trkpt>
      <trkpt lat="47.36379" lon="6.91669">
        <ele>645.159</ele>
        <time>2015-08-15T08:53:27Z</time>
      </trkpt>
      <trkpt lat="47.36359" lon="6.91664">
        <ele>647.85</ele>
        <time>2015-08-15T08:53:38Z</time>
      </trkpt>
      <trkpt lat="47.36339" lon="6.91656">
        <ele>650.966</ele>
        <time>2015-08-15T08:53:49Z</time>
      </trkpt>
      <trkpt lat="47.36325" lon="6.91653">
        <ele>652.538</ele>
        <time>2015-08-15T08:53:56Z</time>
      </trkpt>
      <trkpt lat="47.36308" lon="6.91652">
        <ele>654.67</ele>
        <time>2015-08-15T08:54:06Z</time>
      </trkpt>
      <trkpt lat="47.36291" lon="6.91651">
        <ele>656.674</ele>
        <time>2015-08-15T08:54:16Z</time>
      </trkpt>
      <trkpt lat="47.36265" lon="6.91646">
        <ele>661.685</ele>
        <time>2015-08-15T08:54:30Z</time>
      </trkpt>
      <trkpt lat="47.36247" lon="6.91645">
        <ele>664.787</ele>
        <time>2015-08-15T08:54:41Z</time>
      </trkpt>
      <trkpt lat="47.36236" lon="6.91644">
        <ele>665.557</ele>
        <time>2015-08-15T08:54:46Z</time>
      </trkpt>
      <trkpt lat="47.36221" lon="6.91641">
        <ele>666.646</ele>
        <time>2015-08-15T08:54:56Z</time>
      </trkpt>
      <trkpt lat="47.36199" lon="6.91633">
        <ele>668.672</ele>
        <time>2015-08-15T08:55:08Z</time>
      </trkpt>
      <trkpt lat="47.36174" lon="6.91625">
        <ele>670.53</ele>
        <time>2015-08-15T08:55:19Z</time>
      </trkpt>
      <trkpt lat="47.36163" lon="6.91615">
        <ele>671.988</ele>
        <time>2015-08-15T08:55:26Z</time>
      </trkpt>
      <trkpt lat="47.36145" lon="6.91604">
        <ele>673.111</ele>
        <time>2015-08-15T08:55:35Z</time>
      </trkpt>
      <trkpt lat="47.36119" lon="6.91596">
        <ele>674.553</ele>
        <time>2015-08-15T08:55:48Z</time>
      </trkpt>
      <trkpt lat="47.36098" lon="6.91586">
        <ele>675.029</ele>
        <time>2015-08-15T08:55:58Z</time>
      </trkpt>
      <trkpt lat="47.36076" lon="6.91577">
        <ele>676.094</ele>
        <time>2015-08-15T08:56:08Z</time>
      </trkpt>
      <trkpt lat="47.36059" lon="6.91569">
        <ele>676.902</ele>
        <time>2015-08-15T08:56:17Z</time>
      </trkpt>
      <trkpt lat="47.36038" lon="6.91556">
        <ele>678.345</ele>
        <time>2015-08-15T08:56:26Z</time>
      </trkpt>
      <trkpt lat="47.36023" lon="6.91547">
        <ele>678.691</ele>
        <time>2015-08-15T08:56:32Z</time>
      </trkpt>
      <trkpt lat="47.35999" lon="6.91553">
        <ele>678.962</ele>
        <time>2015-08-15T08:56:42Z</time>
      </trkpt>
      <trkpt lat="47.3598" lon="6.91552">
        <ele>680.847</ele>
        <time>2015-08-15T08:56:49Z</time>
      </trkpt>
      <trkpt lat="47.35957" lon="6.91553">
        <ele>682.978</ele>
        <time>2015-08-15T08:56:57Z</time>
      </trkpt>
      <trkpt lat="47.35934" lon="6.91549">
        <ele>684.226</ele>
        <time>2015-08-15T08:57:07Z</time>
      </trkpt>
      <trkpt lat="47.35919" lon="6.91544">
        <ele>684.393</ele>
        <time>2015-08-15T08:57:14Z</time>
      </trkpt>
      <trkpt lat="47.35887" lon="6.91544">
        <ele>686.029</ele>
        <time>2015-08-15T08:57:27Z</time>
      </trkpt>
      <trkpt lat="47.35865" lon="6.91543">
        <ele>688.103</ele>
        <time>2015-08-15T08:57:36Z</time>
      </trkpt>
      <trkpt lat="47.35843" lon="6.91543">
        <ele>689.643</ele>
        <time>2015-08-15T08:57:44Z</time>
      </trkpt>
      <trkpt lat="47.35827" lon="6.91546">
        <ele>691.002</ele>
        <time>2015-08-15T08:57:51Z</time>
      </trkpt>
      <trkpt lat="47.35794" lon="6.91543">
        <ele>693.595</ele>
        <time>2015-08-15T08:58:03Z</time>
      </trkpt>
      <trkpt lat="47.35776" lon="6.91539">
        <ele>694.828</ele>
        <time>2015-08-15T08:58:09Z</time>
      </trkpt>
      <trkpt lat="47.35759" lon="6.91541">
        <ele>695.271</ele>
        <time>2015-08-15T08:58:15Z</time>
      </trkpt>
      <trkpt lat="47.35717" lon="6.91562">
        <ele>706.729</ele>
        <time>2015-08-15T08:58:23Z</time>
      </trkpt>
      <trkpt lat="47.35677" lon="6.91592">
        <ele>711.394</ele>
        <time>2015-08-15T08:58:28Z</time>
      </trkpt>
      <trkpt lat="47.35617" lon="6.91642">
        <ele>708.654</ele>
        <time>2015-08-15T08:58:34Z</time>
      </trkpt>
      <trkpt lat="47.35592" lon="6.91675">
        <ele>707.66</ele>
        <time>2015-08-15T08:58:37Z</time>
      </trkpt>
      <trkpt lat="47.35556" lon="6.91719">
        <ele>702.551</ele>
        <time>2015-08-15T08:58:41Z</time>
      </trkpt>
      <trkpt lat="47.3553" lon="6.91755">
        <ele>698.179</ele>
        <time>2015-08-15T08:58:44Z</time>
      </trkpt>
      <trkpt lat="47.35505" lon="6.91788">
        <ele>694.851</ele>
        <time>2015-08-15T08:58:47Z</time>
      </trkpt>
      <trkpt lat="47.35467" lon="6.91852">
        <ele>685.747</ele>
        <time>2015-08-15T08:58:52Z</time>
      </trkpt>
      <trkpt lat="47.35448" lon="6.91981">
        <ele>675.417</ele>
        <time>2015-08-15T08:58:59Z</time>
      </trkpt>
      <trkpt lat="47.35436" lon="6.92001">
        <ele>672.011</ele>
        <time>2015-08-15T08:59:05Z</time>
      </trkpt>
      <trkpt lat="47.3543" lon="6.91953">
        <ele>669.455</ele>
        <time>2015-08-15T08:59:10Z</time>
      </trkpt>
      <trkpt lat="47.35433" lon="6.91867">
        <ele>664.546</ele>
        <time>2015-08-15T08:59:16Z</time>
      </trkpt>
      <trkpt lat="47.35431" lon="6.91786">
        <ele>658.708</ele>
        <time>2015-08-15T08:59:22Z</time>
      </trkpt>
      <trkpt lat="47.35426" lon="6.91696">
        <ele>658.333</ele>
        <time>2015-08-15T08:59:28Z</time>
      </trkpt>
      <trkpt lat="47.35424" lon="6.91588">
        <ele>655.135</ele>
        <time>2015-08-15T08:59:35Z</time>
      </trkpt>
      <trkpt lat="47.35428" lon="6.91525">
        <ele>648.025</ele>
        <time>2015-08-15T08:59:40Z</time>
      </trkpt>
      <trkpt lat="47.35395" lon="6.91539">
        <ele>640.616</ele>
        <time>2015-08-15T08:59:47Z</time>
      </trkpt>
      <trkpt lat="47.35366" lon="6.91603">
        <ele>635.635</ele>
        <time>2015-08-15T08:59:52Z</time>
      </trkpt>
      <trkpt lat="47.35339" lon="6.91672">
        <ele>636.412</ele>
        <time>2015-08-15T08:59:58Z</time>
      </trkpt>
      <trkpt lat="47.35319" lon="6.91732">
        <ele>629.083</ele>
        <time>2015-08-15T09:00:03Z</time>
      </trkpt>
      <trkpt lat="47.35298" lon="6.91812">
        <ele>627.449</ele>
        <time>2015-08-15T09:00:09Z</time>
      </trkpt>
      <trkpt lat="47.35277" lon="6.91859">
        <ele>621.298</ele>
        <time>2015-08-15T09:00:15Z</time>
      </trkpt>
      <trkpt lat="47.35274" lon="6.91814">
        <ele>613.624</ele>
        <time>2015-08-15T09:00:20Z</time>
      </trkpt>
      <trkpt lat="47.35291" lon="6.91688">
        <ele>619.759</ele>
        <time>2015-08-15T09:00:30Z</time>
      </trkpt>
      <trkpt lat="47.35301" lon="6.91624">
        <ele>611.656</ele>
        <time>2015-08-15T09:00:35Z</time>
      </trkpt>
      <trkpt lat="47.35307" lon="6.91564">
        <ele>606.531</ele>
        <time>2015-08-15T09:00:39Z</time>
      </trkpt>
      <trkpt lat="47.35313" lon="6.91474">
        <ele>599.094</ele>
        <time>2015-08-15T09:00:45Z</time>
      </trkpt>
      <trkpt lat="47.35313" lon="6.91399">
        <ele>596.79</ele>
        <time>2015-08-15T09:00:50Z</time>
      </trkpt>
      <trkpt lat="47.35309" lon="6.91306">
        <ele>600.738</ele>
        <time>2015-08-15T09:00:56Z</time>
      </trkpt>
      <trkpt lat="47.35304" lon="6.91254">
        <ele>601.972</ele>
        <time>2015-08-15T09:00:59Z</time>
      </trkpt>
      <trkpt lat="47.35289" lon="6.91206">
        <ele>601.082</ele>
        <time>2015-08-15T09:01:02Z</time>
      </trkpt>
      <trkpt lat="47.35279" lon="6.91159">
        <ele>597.245</ele>
        <time>2015-08-15T09:01:05Z</time>
      </trkpt>
      <trkpt lat="47.35285" lon="6.91103">
        <ele>593.22</ele>
        <time>2015-08-15T09:01:09Z</time>
      </trkpt>
      <trkpt lat="47.35309" lon="6.91013">
        <ele>578.244</ele>
        <time>2015-08-15T09:01:16Z</time>
      </trkpt>
      <trkpt lat="47.35304" lon="6.9094">
        <ele>575.935</ele>
        <time>2015-08-15T09:01:21Z</time>
      </trkpt>
      <trkpt lat="47.35302" lon="6.90905">
        <ele>577.027</ele>
        <time>2015-08-15T09:01:24Z</time>
      </trkpt>
      <trkpt lat="47.35287" lon="6.90881">
        <ele>578.038</ele>
        <time>2015-08-15T09:01:28Z</time>
      </trkpt>
      <trkpt lat="47.35262" lon="6.90925">
        <ele>571.477</ele>
        <time>2015-08-15T09:01:33Z</time>
      </trkpt>
      <trkpt lat="47.35265" lon="6.9101">
        <ele>564.032</ele>
        <time>2015-08-15T09:01:39Z</time>
      </trkpt>
      <trkpt lat="47.35248" lon="6.91046">
        <ele>562.879</ele>
        <time>2015-08-15T09:01:43Z</time>
      </trkpt>
      <trkpt lat="47.35208" lon="6.91091">
        <ele>563.294</ele>
        <time>2015-08-15T09:01:48Z</time>
      </trkpt>
      <trkpt lat="47.35185" lon="6.9117">
        <ele>553.861</ele>
        <time>2015-08-15T09:01:53Z</time>
      </trkpt>
      <trkpt lat="47.35168" lon="6.91266">
        <ele>544.545</ele>
        <time>2015-08-15T09:01:59Z</time>
      </trkpt>
      <trkpt lat="47.3515" lon="6.91355">
        <ele>550.682</ele>
        <time>2015-08-15T09:02:04Z</time>
      </trkpt>
      <trkpt lat="47.35133" lon="6.91409">
        <ele>554.276</ele>
        <time>2015-08-15T09:02:07Z</time>
      </trkpt>
      <trkpt lat="47.35101" lon="6.91507">
        <ele>550.294</ele>
        <time>2015-08-15T09:02:13Z</time>
      </trkpt>
      <trkpt lat="47.35079" lon="6.91557">
        <ele>543.116</ele>
        <time>2015-08-15T09:02:17Z</time>
      </trkpt>
      <trkpt lat="47.35054" lon="6.91581">
        <ele>536.337</ele>
        <time>2015-08-15T09:02:20Z</time>
      </trkpt>
      <trkpt lat="47.3503" lon="6.91606">
        <ele>530.448</ele>
        <time>2015-08-15T09:02:23Z</time>
      </trkpt>
      <trkpt lat="47.35008" lon="6.91668">
        <ele>520.577</ele>
        <time>2015-08-15T09:02:29Z</time>
      </trkpt>
      <trkpt lat="47.35037" lon="6.91751">
        <ele>510.296</ele>
        <time>2015-08-15T09:02:35Z</time>
      </trkpt>
      <trkpt lat="47.35048" lon="6.91868">
        <ele>501.909</ele>
        <time>2015-08-15T09:02:41Z</time>
      </trkpt>
      <trkpt lat="47.35026" lon="6.91983">
        <ele>494.291</ele>
        <time>2015-08-15T09:02:47Z</time>
      </trkpt>
      <trkpt lat="47.35007" lon="6.92028">
        <ele>492.758</ele>
        <time>2015-08-15T09:02:50Z</time>
      </trkpt>
      <trkpt lat="47.34986" lon="6.92071">
        <ele>490.096</ele>
        <time>2015-08-15T09:02:53Z</time>
      </trkpt>
      <trkpt lat="47.34969" lon="6.92113">
        <ele>487.183</ele>
        <time>2015-08-15T09:02:56Z</time>
      </trkpt>
      <trkpt lat="47.34953" lon="6.9217">
        <ele>483.05</ele>
        <time>2015-08-15T09:03:02Z</time>
      </trkpt>
      <trkpt lat="47.34951" lon="6.9221">
        <ele>479.59</ele>
        <time>2015-08-15T09:03:07Z</time>
      </trkpt>
      <trkpt lat="47.34946" lon="6.92271">
        <ele>480.316</ele>
        <time>2015-08-15T09:03:12Z</time>
      </trkpt>
      <trkpt lat="47.34932" lon="6.92301">
        <ele>480.012</ele>
        <time>2015-08-15T09:03:15Z</time>
      </trkpt>
      <trkpt lat="47.34915" lon="6.92319">
        <ele>479.709</ele>
        <time>2015-08-15T09:03:18Z</time>
      </trkpt>
      <trkpt lat="47.34895" lon="6.9233">
        <ele>479.068</ele>
        <time>2015-08-15T09:03:21Z</time>
      </trkpt>
      <trkpt lat="47.34865" lon="6.92357">
        <ele>472.961</ele>
        <time>2015-08-15T09:03:26Z</time>
      </trkpt>
      <trkpt lat="47.34823" lon="6.92411">
        <ele>459.136</ele>
        <time>2015-08-15T09:03:35Z</time>
      </trkpt>
      <trkpt lat="47.34782" lon="6.92384">
        <ele>457.447</ele>
        <time>2015-08-15T09:03:41Z</time>
      </trkpt>
      <trkpt lat="47.34765" lon="6.92376">
        <ele>457.267</ele>
        <time>2015-08-15T09:03:44Z</time>
      </trkpt>
      <trkpt lat="47.34747" lon="6.9236">
        <ele>458.283</ele>
        <time>2015-08-15T09:03:47Z</time>
      </trkpt>
      <trkpt lat="47.34726" lon="6.92345">
        <ele>459.346</ele>
        <time>2015-08-15T09:03:50Z</time>
      </trkpt>
      <trkpt lat="47.34692" lon="6.92313">
        <ele>461.417</ele>
        <time>2015-08-15T09:03:55Z</time>
      </trkpt>
      <trkpt lat="47.34674" lon="6.92296">
        <ele>461.649</ele>
        <time>2015-08-15T09:03:58Z</time>
      </trkpt>
      <trkpt lat="47.34648" lon="6.92269">
        <ele>461.304</ele>
        <time>2015-08-15T09:04:03Z</time>
      </trkpt>
      <trkpt lat="47.3462" lon="6.92239">
        <ele>460.814</ele>
        <time>2015-08-15T09:04:09Z</time>
      </trkpt>
      <trkpt lat="47.34608" lon="6.92227">
        <ele>460.314</ele>
        <time>2015-08-15T09:04:12Z</time>
      </trkpt>
      <trkpt lat="47.34588" lon="6.92201">
        <ele>459.953</ele>
        <time>2015-08-15T09:04:19Z</time>
      </trkpt>
      <trkpt lat="47.34566" lon="6.92189">
        <ele>460.812</ele>
        <time>2015-08-15T09:04:30Z</time>
      </trkpt>
      <trkpt lat="47.34543" lon="6.92178">
        <ele>461.94</ele>
        <time>2015-08-15T09:04:40Z</time>
      </trkpt>
      <trkpt lat="47.34528" lon="6.9217">
        <ele>462.755</ele>
        <time>2015-08-15T09:04:49Z</time>
      </trkpt>
      <trkpt lat="47.34513" lon="6.92156">
        <ele>464.172</ele>
        <time>2015-08-15T09:05:03Z</time>
      </trkpt>
      <trkpt lat="47.34492" lon="6.92139">
        <ele>467.259</ele>
        <time>2015-08-15T09:05:21Z</time>
      </trkpt>
      <trkpt lat="47.34487" lon="6.92118">
        <ele>469.877</ele>
        <time>2015-08-15T09:05:33Z</time>
      </trkpt>
      <trkpt lat="47.3449" lon="6.92079">
        <ele>473.361</ele>
        <time>2015-08-15T09:05:47Z</time>
      </trkpt>
      <trkpt lat="47.34501" lon="6.9205">
        <ele>475.172</ele>
        <time>2015-08-15T09:05:58Z</time>
      </trkpt>
      <trkpt lat="47.34511" lon="6.9203">
        <ele>477.119</ele>
        <time>2015-08-15T09:06:05Z</time>
      </trkpt>
      <trkpt lat="47.3452" lon="6.92011">
        <ele>479.313</ele>
        <time>2015-08-15T09:06:13Z</time>
      </trkpt>
      <trkpt lat="47.34531" lon="6.91989">
        <ele>481.011</ele>
        <time>2015-08-15T09:06:22Z</time>
      </trkpt>
      <trkpt lat="47.34538" lon="6.91979">
        <ele>481.144</ele>
        <time>2015-08-15T09:06:27Z</time>
      </trkpt>
      <trkpt lat="47.34547" lon="6.9195">
        <ele>480.117</ele>
        <time>2015-08-15T09:06:40Z</time>
      </trkpt>
      <trkpt lat="47.34533" lon="6.91919">
        <ele>482.952</ele>
        <time>2015-08-15T09:06:54Z</time>
      </trkpt>
      <trkpt lat="47.34518" lon="6.9188">
        <ele>484.86</ele>
        <time>2015-08-15T09:07:07Z</time>
      </trkpt>
      <trkpt lat="47.34502" lon="6.91858">
        <ele>484.759</ele>
        <time>2015-08-15T09:07:16Z</time>
      </trkpt>
      <trkpt lat="47.34495" lon="6.91823">
        <ele>487.144</ele>
        <time>2015-08-15T09:07:26Z</time>
      </trkpt>
      <trkpt lat="47.34492" lon="6.91804">
        <ele>488.185</ele>
        <time>2015-08-15T09:07:31Z</time>
      </trkpt>
      <trkpt lat="47.34486" lon="6.91776">
        <ele>488.635</ele>
        <time>2015-08-15T09:07:39Z</time>
      </trkpt>
      <trkpt lat="47.34486" lon="6.91744">
        <ele>489.235</ele>
        <time>2015-08-15T09:07:48Z</time>
      </trkpt>
      <trkpt lat="47.34486" lon="6.91733">
        <ele>489.74</ele>
        <time>2015-08-15T09:07:51Z</time>
      </trkpt>
      <trkpt lat="47.34487" lon="6.91705">
        <ele>490.803</ele>
        <time>2015-08-15T09:07:59Z</time>
      </trkpt>
      <trkpt lat="47.34487" lon="6.91692">
        <ele>491.382</ele>
        <time>2015-08-15T09:08:03Z</time>
      </trkpt>
      <trkpt lat="47.34487" lon="6.91692">
        <ele>443.5</ele>
        <time>2015-08-15T09:08:08Z</time>
      </trkpt>
      <trkpt lat="47.34487" lon="6.91692">
        <ele>443.5</ele>
        <time>2015-08-15T09:08:14Z</time>
      </trkpt>
      <trkpt lat="47.34474" lon="6.91691">
        <ele>493.646</ele>
        <time>2015-08-15T09:08:14Z</time>
      </trkpt>
      <trkpt lat="47.3446" lon="6.91712">
        <ele>497.451</ele>
        <time>2015-08-15T09:08:26Z</time>
      </trkpt>
      <trkpt lat="47.34444" lon="6.91747">
        <ele>498.478</ele>
        <time>2015-08-15T09:08:41Z</time>
      </trkpt>
      <trkpt lat="47.34436" lon="6.91765">
        <ele>499.671</ele>
        <time>2015-08-15T09:08:49Z</time>
      </trkpt>
      <trkpt lat="47.34428" lon="6.91797">
        <ele>500.546</ele>
        <time>2015-08-15T09:09:01Z</time>
      </trkpt>
      <trkpt lat="47.34423" lon="6.91816">
        <ele>501.31</ele>
        <time>2015-08-15T09:09:09Z</time>
      </trkpt>
      <trkpt lat="47.34419" lon="6.91836">
        <ele>501.168</ele>
        <time>2015-08-15T09:09:17Z</time>
      </trkpt>
      <trkpt lat="47.34414" lon="6.91864">
        <ele>502.202</ele>
        <time>2015-08-15T09:09:30Z</time>
      </trkpt>
      <trkpt lat="47.3441" lon="6.91889">
        <ele>503.96</ele>
        <time>2015-08-15T09:09:41Z</time>
      </trkpt>
      <trkpt lat="47.34396" lon="6.91918">
        <ele>506.739</ele>
        <time>2015-08-15T09:09:54Z</time>
      </trkpt>
      <trkpt lat="47.3439" lon="6.91932">
        <ele>507.938</ele>
        <time>2015-08-15T09:10:00Z</time>
      </trkpt>
      <trkpt lat="47.34373" lon="6.9196">
        <ele>510.704</ele>
        <time>2015-08-15T09:10:13Z</time>
      </trkpt>
      <trkpt lat="47.34362" lon="6.91981">
        <ele>511.911</ele>
        <time>2015-08-15T09:10:23Z</time>
      </trkpt>
      <trkpt lat="47.34351" lon="6.91999">
        <ele>512.323</ele>
        <time>2015-08-15T09:10:32Z</time>
      </trkpt>
      <trkpt lat="47.34339" lon="6.92014">
        <ele>512.514</ele>
        <time>2015-08-15T09:10:40Z</time>
      </trkpt>
      <trkpt lat="47.34326" lon="6.92034">
        <ele>513.549</ele>
        <time>2015-08-15T09:10:52Z</time>
      </trkpt>
      <trkpt lat="47.34316" lon="6.92045">
        <ele>515.215</ele>
        <time>2015-08-15T09:11:00Z</time>
      </trkpt>
      <trkpt lat="47.34304" lon="6.92052">
        <ele>517.141</ele>
        <time>2015-08-15T09:11:08Z</time>
      </trkpt>
      <trkpt lat="47.34284" lon="6.92058">
        <ele>519.59</ele>
        <time>2015-08-15T09:11:20Z</time>
      </trkpt>
      <trkpt lat="47.34274" lon="6.92065">
        <ele>521.048</ele>
        <time>2015-08-15T09:11:27Z</time>
      </trkpt>
      <trkpt lat="47.34264" lon="6.92074">
        <ele>522.153</ele>
        <time>2015-08-15T09:11:34Z</time>
      </trkpt>
      <trkpt lat="47.34249" lon="6.92091">
        <ele>524.203</ele>
        <time>2015-08-15T09:11:46Z</time>
      </trkpt>
      <trkpt lat="47.34237" lon="6.92101">
        <ele>525.182</ele>
        <time>2015-08-15T09:11:54Z</time>
      </trkpt>
      <trkpt lat="47.34228" lon="6.9211">
        <ele>526.476</ele>
        <time>2015-08-15T09:12:01Z</time>
      </trkpt>
      <trkpt lat="47.34216" lon="6.92135">
        <ele>530.145</ele>
        <time>2015-08-15T09:12:13Z</time>
      </trkpt>
      <trkpt lat="47.34209" lon="6.9216">
        <ele>532.169</ele>
        <time>2015-08-15T09:12:24Z</time>
      </trkpt>
      <trkpt lat="47.34198" lon="6.92175">
        <ele>533.588</ele>
        <time>2015-08-15T09:12:33Z</time>
      </trkpt>
      <trkpt lat="47.34184" lon="6.92183">
        <ele>535.944</ele>
        <time>2015-08-15T09:12:42Z</time>
      </trkpt>
      <trkpt lat="47.34171" lon="6.92187">
        <ele>538.38</ele>
        <time>2015-08-15T09:12:49Z</time>
      </trkpt>
      <trkpt lat="47.3416" lon="6.9219">
        <ele>540.834</ele>
        <time>2015-08-15T09:12:55Z</time>
      </trkpt>
      <trkpt lat="47.34139" lon="6.92186">
        <ele>545.884</ele>
        <time>2015-08-15T09:13:07Z</time>
      </trkpt>
      <trkpt lat="47.3412" lon="6.92175">
        <ele>549.314</ele>
        <time>2015-08-15T09:13:19Z</time>
      </trkpt>
      <trkpt lat="47.34108" lon="6.92174">
        <ele>550.549</ele>
        <time>2015-08-15T09:13:26Z</time>
      </trkpt>
      <trkpt lat="47.34094" lon="6.92182">
        <ele>552.097</ele>
        <time>2015-08-15T09:13:35Z</time>
      </trkpt>
      <trkpt lat="47.34073" lon="6.92194">
        <ele>553.999</ele>
        <time>2015-08-15T09:13:47Z</time>
      </trkpt>
      <trkpt lat="47.34058" lon="6.92206">
        <ele>555.902</ele>
        <time>2015-08-15T09:13:56Z</time>
      </trkpt>
      <trkpt lat="47.34042" lon="6.92214">
        <ele>558.899</ele>
        <time>2015-08-15T09:14:07Z</time>
      </trkpt>
      <trkpt lat="47.34023" lon="6.9222">
        <ele>562.437</ele>
        <time>2015-08-15T09:14:21Z</time>
      </trkpt>
      <trkpt lat="47.34006" lon="6.92209">
        <ele>563.343</ele>
        <time>2015-08-15T09:14:32Z</time>
      </trkpt>
      <trkpt lat="47.33996" lon="6.92205">
        <ele>564.341</ele>
        <time>2015-08-15T09:14:38Z</time>
      </trkpt>
      <trkpt lat="47.3398" lon="6.92203">
        <ele>565.906</ele>
        <time>2015-08-15T09:14:46Z</time>
      </trkpt>
      <trkpt lat="47.33966" lon="6.92207">
        <ele>567.41</ele>
        <time>2015-08-15T09:14:54Z</time>
      </trkpt>
      <trkpt lat="47.33955" lon="6.92215">
        <ele>567.911</ele>
        <time>2015-08-15T09:15:02Z</time>
      </trkpt>
      <trkpt lat="47.3394" lon="6.9223">
        <ele>568.599</ele>
        <time>2015-08-15T09:15:18Z</time>
      </trkpt>
      <trkpt lat="47.33904" lon="6.92234">
        <ele>572.483</ele>
        <time>2015-08-15T09:15:36Z</time>
      </trkpt>
      <trkpt lat="47.33881" lon="6.92254">
        <ele>574.095</ele>
        <time>2015-08-15T09:15:51Z</time>
      </trkpt>
      <trkpt lat="47.33864" lon="6.92248">
        <ele>572.807</ele>
        <time>2015-08-15T09:16:03Z</time>
      </trkpt>
      <trkpt lat="47.33873" lon="6.92223">
        <ele>573.197</ele>
        <time>2015-08-15T09:16:17Z</time>
      </trkpt>
      <trkpt lat="47.33884" lon="6.922">
        <ele>574.102</ele>
        <time>2015-08-15T09:16:30Z</time>
      </trkpt>
      <trkpt lat="47.33897" lon="6.92169">
        <ele>576.082</ele>
        <time>2015-08-15T09:16:44Z</time>
      </trkpt>
      <trkpt lat="47.33916" lon="6.92139">
        <ele>578.323</ele>
        <time>2015-08-15T09:16:58Z</time>
      </trkpt>
      <trkpt lat="47.33925" lon="6.92121">
        <ele>579.11</ele>
        <time>2015-08-15T09:17:07Z</time>
      </trkpt>
      <trkpt lat="47.33945" lon="6.92092">
        <ele>581.658</ele>
        <time>2015-08-15T09:17:21Z</time>
      </trkpt>
      <trkpt lat="47.33962" lon="6.92073">
        <ele>583.612</ele>
        <time>2015-08-15T09:17:32Z</time>
      </trkpt>
      <trkpt lat="47.33979" lon="6.92054">
        <ele>588.145</ele>
        <time>2015-08-15T09:17:44Z</time>
      </trkpt>
      <trkpt lat="47.33995" lon="6.92034">
        <ele>592.436</ele>
        <time>2015-08-15T09:17:58Z</time>
      </trkpt>
      <trkpt lat="47.34016" lon="6.92012">
        <ele>595.493</ele>
        <time>2015-08-15T09:18:13Z</time>
      </trkpt>
      <trkpt lat="47.34032" lon="6.91994">
        <ele>595.699</ele>
        <time>2015-08-15T09:18:24Z</time>
      </trkpt>
      <trkpt lat="47.34045" lon="6.91979">
        <ele>596.844</ele>
        <time>2015-08-15T09:18:32Z</time>
      </trkpt>
      <trkpt lat="47.34051" lon="6.9196">
        <ele>597.26</ele>
        <time>2015-08-15T09:18:41Z</time>
      </trkpt>
      <trkpt lat="47.34058" lon="6.9193">
        <ele>598.637</ele>
        <time>2015-08-15T09:18:54Z</time>
      </trkpt>
      <trkpt lat="47.3407" lon="6.9191">
        <ele>601.154</ele>
        <time>2015-08-15T09:19:05Z</time>
      </trkpt>
      <trkpt lat="47.34082" lon="6.91884">
        <ele>603.56</ele>
        <time>2015-08-15T09:19:18Z</time>
      </trkpt>
      <trkpt lat="47.34062" lon="6.91879">
        <ele>605.762</ele>
        <time>2015-08-15T09:19:32Z</time>
      </trkpt>
      <trkpt lat="47.34044" lon="6.91888">
        <ele>606.8</ele>
        <time>2015-08-15T09:19:43Z</time>
      </trkpt>
      <trkpt lat="47.34034" lon="6.91894">
        <ele>608.135</ele>
        <time>2015-08-15T09:19:50Z</time>
      </trkpt>
      <trkpt lat="47.34014" lon="6.91902">
        <ele>610.655</ele>
        <time>2015-08-15T09:20:01Z</time>
      </trkpt>
      <trkpt lat="47.34007" lon="6.91906">
        <ele>611.145</ele>
        <time>2015-08-15T09:20:06Z</time>
      </trkpt>
      <trkpt lat="47.33984" lon="6.91921">
        <ele>613.69</ele>
        <time>2015-08-15T09:20:21Z</time>
      </trkpt>
      <trkpt lat="47.33975" lon="6.91909">
        <ele>616.082</ele>
        <time>2015-08-15T09:20:31Z</time>
      </trkpt>
      <trkpt lat="47.33984" lon="6.91891">
        <ele>617.756</ele>
        <time>2015-08-15T09:20:40Z</time>
      </trkpt>
      <trkpt lat="47.34001" lon="6.91866">
        <ele>618.95</ele>
        <time>2015-08-15T09:20:56Z</time>
      </trkpt>
      <trkpt lat="47.34018" lon="6.91841">
        <ele>620.504</ele>
        <time>2015-08-15T09:21:07Z</time>
      </trkpt>
      <trkpt lat="47.34028" lon="6.91829">
        <ele>621.331</ele>
        <time>2015-08-15T09:21:14Z</time>
      </trkpt>
      <trkpt lat="47.34049" lon="6.91805">
        <ele>625.136</ele>
        <time>2015-08-15T09:21:29Z</time>
      </trkpt>
      <trkpt lat="47.34067" lon="6.91782">
        <ele>630.904</ele>
        <time>2015-08-15T09:21:43Z</time>
      </trkpt>
      <trkpt lat="47.34079" lon="6.91762">
        <ele>634.288</ele>
        <time>2015-08-15T09:21:54Z</time>
      </trkpt>
      <trkpt lat="47.34087" lon="6.91743">
        <ele>636.092</ele>
        <time>2015-08-15T09:22:03Z</time>
      </trkpt>
      <trkpt lat="47.34094" lon="6.91717">
        <ele>638.286</ele>
        <time>2015-08-15T09:22:15Z</time>
      </trkpt>
      <trkpt lat="47.34104" lon="6.91696">
        <ele>640.308</ele>
        <time>2015-08-15T09:22:22Z</time>
      </trkpt>
      <trkpt lat="47.34113" lon="6.91684">
        <ele>641.144</ele>
        <time>2015-08-15T09:22:30Z</time>
      </trkpt>
      <trkpt lat="47.34127" lon="6.91664">
        <ele>641.72</ele>
        <time>2015-08-15T09:22:42Z</time>
      </trkpt>
      <trkpt lat="47.34137" lon="6.9165">
        <ele>642.294</ele>
        <time>2015-08-15T09:22:49Z</time>
      </trkpt>
      <trkpt lat="47.3415" lon="6.91623">
        <ele>643.681</ele>
        <time>2015-08-15T09:23:02Z</time>
      </trkpt>
      <trkpt lat="47.34169" lon="6.91604">
        <ele>645.644</ele>
        <time>2015-08-15T09:23:16Z</time>
      </trkpt>
      <trkpt lat="47.34176" lon="6.91586">
        <ele>647.374</ele>
        <time>2015-08-15T09:23:27Z</time>
      </trkpt>
      <trkpt lat="47.34157" lon="6.91583">
        <ele>650.467</ele>
        <time>2015-08-15T09:23:39Z</time>
      </trkpt>
      <trkpt lat="47.34147" lon="6.91587">
        <ele>651.826</ele>
        <time>2015-08-15T09:23:45Z</time>
      </trkpt>
      <trkpt lat="47.34137" lon="6.91589">
        <ele>652.869</ele>
        <time>2015-08-15T09:23:51Z</time>
      </trkpt>
      <trkpt lat="47.34123" lon="6.91589">
        <ele>654.444</ele>
        <time>2015-08-15T09:23:59Z</time>
      </trkpt>
      <trkpt lat="47.34104" lon="6.91592">
        <ele>656.398</ele>
        <time>2015-08-15T09:24:12Z</time>
      </trkpt>
      <trkpt lat="47.34085" lon="6.91604">
        <ele>657.835</ele>
        <time>2015-08-15T09:24:26Z</time>
      </trkpt>
      <trkpt lat="47.34072" lon="6.91612">
        <ele>658.791</ele>
        <time>2015-08-15T09:24:34Z</time>
      </trkpt>
      <trkpt lat="47.34056" lon="6.91619">
        <ele>659.488</ele>
        <time>2015-08-15T09:24:45Z</time>
      </trkpt>
      <trkpt lat="47.34056" lon="6.91619">
        <ele>659.488</ele>
        <time>2015-08-15T09:24:53Z</time>
      </trkpt>
      <trkpt lat="47.34056" lon="6.91619">
        <ele>609.8</ele>
        <time>2015-08-15T09:24:53Z</time>
      </trkpt>
      <trkpt lat="47.34056" lon="6.91619">
        <ele>609.8</ele>
        <time>2015-08-15T09:25:03Z</time>
      </trkpt>
      <trkpt lat="47.34041" lon="6.91624">
        <ele>661.629</ele>
        <time>2015-08-15T09:25:03Z</time>
      </trkpt>
      <trkpt lat="47.34031" lon="6.91634">
        <ele>663.042</ele>
        <time>2015-08-15T09:25:11Z</time>
      </trkpt>
      <trkpt lat="47.34011" lon="6.91656">
        <ele>665.136</ele>
        <time>2015-08-15T09:25:22Z</time>
      </trkpt>
      <trkpt lat="47.34003" lon="6.91668">
        <ele>666.894</ele>
        <time>2015-08-15T09:25:29Z</time>
      </trkpt>
      <trkpt lat="47.33991" lon="6.9168">
        <ele>668.407</ele>
        <time>2015-08-15T09:25:37Z</time>
      </trkpt>
      <trkpt lat="47.33979" lon="6.917">
        <ele>670.435</ele>
        <time>2015-08-15T09:25:49Z</time>
      </trkpt>
      <trkpt lat="47.33965" lon="6.91712">
        <ele>671.175</ele>
        <time>2015-08-15T09:26:02Z</time>
      </trkpt>
      <trkpt lat="47.33963" lon="6.91682">
        <ele>672.515</ele>
        <time>2015-08-15T09:26:14Z</time>
      </trkpt>
      <trkpt lat="47.33973" lon="6.91665">
        <ele>673.361</ele>
        <time>2015-08-15T09:26:22Z</time>
      </trkpt>
      <trkpt lat="47.33978" lon="6.91644">
        <ele>672.618</ele>
        <time>2015-08-15T09:26:31Z</time>
      </trkpt>
      <trkpt lat="47.33982" lon="6.91624">
        <ele>671.283</ele>
        <time>2015-08-15T09:26:39Z</time>
      </trkpt>
      <trkpt lat="47.33988" lon="6.91602">
        <ele>670.615</ele>
        <time>2015-08-15T09:26:49Z</time>
      </trkpt>
      <trkpt lat="47.33992" lon="6.91579">
        <ele>669.174</ele>
        <time>2015-08-15T09:26:58Z</time>
      </trkpt>
      <trkpt lat="47.33997" lon="6.91561">
        <ele>668.833</ele>
        <time>2015-08-15T09:27:06Z</time>
      </trkpt>
      <trkpt lat="47.34003" lon="6.91543">
        <ele>669.601</ele>
        <time>2015-08-15T09:27:14Z</time>
      </trkpt>
      <trkpt lat="47.34012" lon="6.91516">
        <ele>672.146</ele>
        <time>2015-08-15T09:27:27Z</time>
      </trkpt>
      <trkpt lat="47.34024" lon="6.91487">
        <ele>674.432</ele>
        <time>2015-08-15T09:27:38Z</time>
      </trkpt>
      <trkpt lat="47.34043" lon="6.91473">
        <ele>676.027</ele>
        <time>2015-08-15T09:27:50Z</time>
      </trkpt>
      <trkpt lat="47.34059" lon="6.91453">
        <ele>677.574</ele>
        <time>2015-08-15T09:28:05Z</time>
      </trkpt>
      <trkpt lat="47.34071" lon="6.91445">
        <ele>678.868</ele>
        <time>2015-08-15T09:28:12Z</time>
      </trkpt>
      <trkpt lat="47.34084" lon="6.91413">
        <ele>683.776</ele>
        <time>2015-08-15T09:28:25Z</time>
      </trkpt>
      <trkpt lat="47.34092" lon="6.91388">
        <ele>686.232</ele>
        <time>2015-08-15T09:28:36Z</time>
      </trkpt>
      <trkpt lat="47.34097" lon="6.91363">
        <ele>685.711</ele>
        <time>2015-08-15T09:28:47Z</time>
      </trkpt>
      <trkpt lat="47.34096" lon="6.91331">
        <ele>684.589</ele>
        <time>2015-08-15T09:29:00Z</time>
      </trkpt>
      <trkpt lat="47.34091" lon="6.91295">
        <ele>685.816</ele>
        <time>2015-08-15T09:29:15Z</time>
      </trkpt>
      <trkpt lat="47.34086" lon="6.91274">
        <ele>688.3</ele>
        <time>2015-08-15T09:29:24Z</time>
      </trkpt>
      <trkpt lat="47.34074" lon="6.9125">
        <ele>691.654</ele>
        <time>2015-08-15T09:29:38Z</time>
      </trkpt>
      <trkpt lat="47.3406" lon="6.91228">
        <ele>694.296</ele>
        <time>2015-08-15T09:29:51Z</time>
      </trkpt>
      <trkpt lat="47.34051" lon="6.91223">
        <ele>696.447</ele>
        <time>2015-08-15T09:29:59Z</time>
      </trkpt>
      <trkpt lat="47.34035" lon="6.9122">
        <ele>698.181</ele>
        <time>2015-08-15T09:30:07Z</time>
      </trkpt>
      <trkpt lat="47.3402" lon="6.91223">
        <ele>702.187</ele>
        <time>2015-08-15T09:30:18Z</time>
      </trkpt>
      <trkpt lat="47.34" lon="6.91229">
        <ele>706.284</ele>
        <time>2015-08-15T09:30:32Z</time>
      </trkpt>
      <trkpt lat="47.33982" lon="6.91218">
        <ele>709.924</ele>
        <time>2015-08-15T09:30:44Z</time>
      </trkpt>
      <trkpt lat="47.3397" lon="6.9122">
        <ele>713.168</ele>
        <time>2015-08-15T09:30:52Z</time>
      </trkpt>
      <trkpt lat="47.3397" lon="6.9122">
        <ele>713.168</ele>
        <time>2015-08-15T09:31:01Z</time>
      </trkpt>
      <trkpt lat="47.3397" lon="6.9122">
        <ele>670.9</ele>
        <time>2015-08-15T09:31:01Z</time>
      </trkpt>
      <trkpt lat="47.3397" lon="6.9122">
        <ele>670.9</ele>
        <time>2015-08-15T09:31:11Z</time>
      </trkpt>
      <trkpt lat="47.33986" lon="6.91236">
        <ele>720.886</ele>
        <time>2015-08-15T09:31:11Z</time>
      </trkpt>
      <trkpt lat="47.34001" lon="6.91258">
        <ele>722.016</ele>
        <time>2015-08-15T09:31:27Z</time>
      </trkpt>
      <trkpt lat="47.34011" lon="6.91286">
        <ele>724.9</ele>
        <time>2015-08-15T09:31:39Z</time>
      </trkpt>
      <trkpt lat="47.34019" lon="6.91307">
        <ele>727.068</ele>
        <time>2015-08-15T09:31:48Z</time>
      </trkpt>
      <trkpt lat="47.34027" lon="6.91329">
        <ele>728.621</ele>
        <time>2015-08-15T09:31:58Z</time>
      </trkpt>
      <trkpt lat="47.34033" lon="6.91348">
        <ele>729.446</ele>
        <time>2015-08-15T09:32:08Z</time>
      </trkpt>
      <trkpt lat="47.34035" lon="6.91368">
        <ele>730.009</ele>
        <time>2015-08-15T09:32:15Z</time>
      </trkpt>
      <trkpt lat="47.34026" lon="6.91369">
        <ele>731.485</ele>
        <time>2015-08-15T09:32:23Z</time>
      </trkpt>
      <trkpt lat="47.34009" lon="6.91347">
        <ele>734.37</ele>
        <time>2015-08-15T09:32:40Z</time>
      </trkpt>
      <trkpt lat="47.33996" lon="6.91333">
        <ele>736.822</ele>
        <time>2015-08-15T09:32:51Z</time>
      </trkpt>
      <trkpt lat="47.33986" lon="6.91328">
        <ele>738.445</ele>
        <time>2015-08-15T09:32:57Z</time>
      </trkpt>
      <trkpt lat="47.33968" lon="6.91319">
        <ele>740.193</ele>
        <time>2015-08-15T09:33:10Z</time>
      </trkpt>
      <trkpt lat="47.33953" lon="6.9131">
        <ele>741.726</ele>
        <time>2015-08-15T09:33:21Z</time>
      </trkpt>
      <trkpt lat="47.33932" lon="6.91301">
        <ele>744.666</ele>
        <time>2015-08-15T09:33:35Z</time>
      </trkpt>
      <trkpt lat="47.33898" lon="6.91302">
        <ele>747.221</ele>
        <time>2015-08-15T09:33:55Z</time>
      </trkpt>
      <trkpt lat="47.33874" lon="6.91284">
        <ele>752.547</ele>
        <time>2015-08-15T09:34:12Z</time>
      </trkpt>
      <trkpt lat="47.33854" lon="6.91274">
        <ele>754.119</ele>
        <time>2015-08-15T09:34:23Z</time>
      </trkpt>
      <trkpt lat="47.33833" lon="6.91257">
        <ele>756.557</ele>
        <time>2015-08-15T09:34:34Z</time>
      </trkpt>
      <trkpt lat="47.33808" lon="6.91251">
        <ele>757.96</ele>
        <time>2015-08-15T09:34:45Z</time>
      </trkpt>
      <trkpt lat="47.33798" lon="6.91248">
        <ele>759.866</ele>
        <time>2015-08-15T09:34:54Z</time>
      </trkpt>
      <trkpt lat="47.33772" lon="6.91234">
        <ele>763.516</ele>
        <time>2015-08-15T09:35:10Z</time>
      </trkpt>
      <trkpt lat="47.33753" lon="6.91222">
        <ele>765.072</ele>
        <time>2015-08-15T09:35:19Z</time>
      </trkpt>
      <trkpt lat="47.33741" lon="6.91212">
        <ele>766.56</ele>
        <time>2015-08-15T09:35:26Z</time>
      </trkpt>
      <trkpt lat="47.3373" lon="6.91198">
        <ele>768.205</ele>
        <time>2015-08-15T09:35:33Z</time>
      </trkpt>
      <trkpt lat="47.33713" lon="6.91185">
        <ele>769.636</ele>
        <time>2015-08-15T09:35:45Z</time>
      </trkpt>
      <trkpt lat="47.33696" lon="6.91179">
        <ele>771.015</ele>
        <time>2015-08-15T09:35:55Z</time>
      </trkpt>
      <trkpt lat="47.3368" lon="6.91169">
        <ele>772.21</ele>
        <time>2015-08-15T09:36:03Z</time>
      </trkpt>
      <trkpt lat="47.33657" lon="6.91151">
        <ele>774.246</ele>
        <time>2015-08-15T09:36:13Z</time>
      </trkpt>
      <trkpt lat="47.33636" lon="6.9113">
        <ele>776.155</ele>
        <time>2015-08-15T09:36:21Z</time>
      </trkpt>
      <trkpt lat="47.33615" lon="6.91112">
        <ele>780.628</ele>
        <time>2015-08-15T09:36:28Z</time>
      </trkpt>
      <trkpt lat="47.33585" lon="6.91091">
        <ele>780.055</ele>
        <time>2015-08-15T09:36:34Z</time>
      </trkpt>
      <trkpt lat="47.33552" lon="6.91066">
        <ele>775.909</ele>
        <time>2015-08-15T09:36:41Z</time>
      </trkpt>
      <trkpt lat="47.33523" lon="6.9104">
        <ele>775.774</ele>
        <time>2015-08-15T09:36:46Z</time>
      </trkpt>
      <trkpt lat="47.33488" lon="6.91008">
        <ele>776.649</ele>
        <time>2015-08-15T09:36:52Z</time>
      </trkpt>
      <trkpt lat="47.3345" lon="6.90974">
        <ele>779.973</ele>
        <time>2015-08-15T09:36:58Z</time>
      </trkpt>
      <trkpt lat="47.33409" lon="6.90959">
        <ele>781.785</ele>
        <time>2015-08-15T09:37:04Z</time>
      </trkpt>
      <trkpt lat="47.33366" lon="6.90967">
        <ele>776.453</ele>
        <time>2015-08-15T09:37:11Z</time>
      </trkpt>
      <trkpt lat="47.33338" lon="6.90963">
        <ele>771.885</ele>
        <time>2015-08-15T09:37:16Z</time>
      </trkpt>
      <trkpt lat="47.33312" lon="6.90946">
        <ele>771.008</ele>
        <time>2015-08-15T09:37:22Z</time>
      </trkpt>
      <trkpt lat="47.33295" lon="6.90928">
        <ele>773.13</ele>
        <time>2015-08-15T09:37:27Z</time>
      </trkpt>
      <trkpt lat="47.33279" lon="6.90904">
        <ele>781.017</ele>
        <time>2015-08-15T09:37:33Z</time>
      </trkpt>
      <trkpt lat="47.33265" lon="6.9087">
        <ele>786.27</ele>
        <time>2015-08-15T09:37:39Z</time>
      </trkpt>
      <trkpt lat="47.33255" lon="6.90836">
        <ele>787.878</ele>
        <time>2015-08-15T09:37:45Z</time>
      </trkpt>
      <trkpt lat="47.33238" lon="6.908">
        <ele>786.578</ele>
        <time>2015-08-15T09:37:52Z</time>
      </trkpt>
      <trkpt lat="47.33218" lon="6.9078">
        <ele>785.697</ele>
        <time>2015-08-15T09:37:58Z</time>
      </trkpt>
      <trkpt lat="47.33211" lon="6.90771">
        <ele>785.736</ele>
        <time>2015-08-15T09:38:01Z</time>
      </trkpt>
      <trkpt lat="47.33193" lon="6.90749">
        <ele>785.57</ele>
        <time>2015-08-15T09:38:10Z</time>
      </trkpt>
      <trkpt lat="47.33183" lon="6.90731">
        <ele>785.157</ele>
        <time>2015-08-15T09:38:17Z</time>
      </trkpt>
      <trkpt lat="47.33174" lon="6.90706">
        <ele>784.503</ele>
        <time>2015-08-15T09:38:26Z</time>
      </trkpt>
      <trkpt lat="47.33169" lon="6.90687">
        <ele>784.613</ele>
        <time>2015-08-15T09:38:36Z</time>
      </trkpt>
      <trkpt lat="47.33163" lon="6.90654">
        <ele>784.446</ele>
        <time>2015-08-15T09:38:49Z</time>
      </trkpt>
      <trkpt lat="47.33152" lon="6.90619">
        <ele>785.11</ele>
        <time>2015-08-15T09:39:04Z</time>
      </trkpt>
      <trkpt lat="47.33133" lon="6.906">
        <ele>786.436</ele>
        <time>2015-08-15T09:39:16Z</time>
      </trkpt>
      <trkpt lat="47.33115" lon="6.90588">
        <ele>785.877</ele>
        <time>2015-08-15T09:39:26Z</time>
      </trkpt>
      <trkpt lat="47.33103" lon="6.90589">
        <ele>785.567</ele>
        <time>2015-08-15T09:39:32Z</time>
      </trkpt>
      <trkpt lat="47.33086" lon="6.90596">
        <ele>785.534</ele>
        <time>2015-08-15T09:39:43Z</time>
      </trkpt>
      <trkpt lat="47.33072" lon="6.90615">
        <ele>786.276</ele>
        <time>2015-08-15T09:39:58Z</time>
      </trkpt>
      <trkpt lat="47.33065" lon="6.90661">
        <ele>786.707</ele>
        <time>2015-08-15T09:40:14Z</time>
      </trkpt>
      <trkpt lat="47.33062" lon="6.9068">
        <ele>787.426</ele>
        <time>2015-08-15T09:40:20Z</time>
      </trkpt>
      <trkpt lat="47.33059" lon="6.90695">
        <ele>788.224</ele>
        <time>2015-08-15T09:40:29Z</time>
      </trkpt>
      <trkpt lat="47.33041" lon="6.90726">
        <ele>788.089</ele>
        <time>2015-08-15T09:40:44Z</time>
      </trkpt>
      <trkpt lat="47.33034" lon="6.90742">
        <ele>787.842</ele>
        <time>2015-08-15T09:40:53Z</time>
      </trkpt>
      <trkpt lat="47.33027" lon="6.90768">
        <ele>786.981</ele>
        <time>2015-08-15T09:41:05Z</time>
      </trkpt>
      <trkpt lat="47.33021" lon="6.90801">
        <ele>787.612</ele>
        <time>2015-08-15T09:41:17Z</time>
      </trkpt>
      <trkpt lat="47.33014" lon="6.9082">
        <ele>787.71</ele>
        <time>2015-08-15T09:41:26Z</time>
      </trkpt>
      <trkpt lat="47.3301" lon="6.90843">
        <ele>789.533</ele>
        <time>2015-08-15T09:41:40Z</time>
      </trkpt>
      <trkpt lat="47.32999" lon="6.90868">
        <ele>790.68</ele>
        <time>2015-08-15T09:41:51Z</time>
      </trkpt>
      <trkpt lat="47.32994" lon="6.90894">
        <ele>793.985</ele>
        <time>2015-08-15T09:42:00Z</time>
      </trkpt>
      <trkpt lat="47.32987" lon="6.90925">
        <ele>796.335</ele>
        <time>2015-08-15T09:42:10Z</time>
      </trkpt>
      <trkpt lat="47.32965" lon="6.90966">
        <ele>802.477</ele>
        <time>2015-08-15T09:42:18Z</time>
      </trkpt>
      <trkpt lat="47.32934" lon="6.91024">
        <ele>812.036</ele>
        <time>2015-08-15T09:42:25Z</time>
      </trkpt>
      <trkpt lat="47.32883" lon="6.91071">
        <ele>811.183</ele>
        <time>2015-08-15T09:42:31Z</time>
      </trkpt>
      <trkpt lat="47.32831" lon="6.91101">
        <ele>807.697</ele>
        <time>2015-08-15T09:42:37Z</time>
      </trkpt>
      <trkpt lat="47.32801" lon="6.91121">
        <ele>805.372</ele>
        <time>2015-08-15T09:42:42Z</time>
      </trkpt>
      <trkpt lat="47.3278" lon="6.91136">
        <ele>803.483</ele>
        <time>2015-08-15T09:42:47Z</time>
      </trkpt>
      <trkpt lat="47.32758" lon="6.91152">
        <ele>800.958</ele>
        <time>2015-08-15T09:42:53Z</time>
      </trkpt>
      <trkpt lat="47.32734" lon="6.9117">
        <ele>800.807</ele>
        <time>2015-08-15T09:42:59Z</time>
      </trkpt>
      <trkpt lat="47.32712" lon="6.91184">
        <ele>804.96</ele>
        <time>2015-08-15T09:43:05Z</time>
      </trkpt>
      <trkpt lat="47.32677" lon="6.9121">
        <ele>811.917</ele>
        <time>2015-08-15T09:43:12Z</time>
      </trkpt>
      <trkpt lat="47.32643" lon="6.91244">
        <ele>807.09</ele>
        <time>2015-08-15T09:43:17Z</time>
      </trkpt>
      <trkpt lat="47.3261" lon="6.91276">
        <ele>802.205</ele>
        <time>2015-08-15T09:43:23Z</time>
      </trkpt>
      <trkpt lat="47.32585" lon="6.91298">
        <ele>802.204</ele>
        <time>2015-08-15T09:43:28Z</time>
      </trkpt>
      <trkpt lat="47.32573" lon="6.9131">
        <ele>801.968</ele>
        <time>2015-08-15T09:43:31Z</time>
      </trkpt>
      <trkpt lat="47.32553" lon="6.91327">
        <ele>797.835</ele>
        <time>2015-08-15T09:43:36Z</time>
      </trkpt>
      <trkpt lat="47.32526" lon="6.91349">
        <ele>800.915</ele>
        <time>2015-08-15T09:43:44Z</time>
      </trkpt>
      <trkpt lat="47.32502" lon="6.91356">
        <ele>803.627</ele>
        <time>2015-08-15T09:43:51Z</time>
      </trkpt>
      <trkpt lat="47.32479" lon="6.91355">
        <ele>804.931</ele>
        <time>2015-08-15T09:43:57Z</time>
      </trkpt>
      <trkpt lat="47.32446" lon="6.91348">
        <ele>806.607</ele>
        <time>2015-08-15T09:44:05Z</time>
      </trkpt>
      <trkpt lat="47.32422" lon="6.91344">
        <ele>805.021</ele>
        <time>2015-08-15T09:44:11Z</time>
      </trkpt>
      <trkpt lat="47.32411" lon="6.91343">
        <ele>804.896</ele>
        <time>2015-08-15T09:44:14Z</time>
      </trkpt>
      <trkpt lat="47.324" lon="6.91341">
        <ele>804.772</ele>
        <time>2015-08-15T09:44:17Z</time>
      </trkpt>
      <trkpt lat="47.32377" lon="6.9134">
        <ele>805.144</ele>
        <time>2015-08-15T09:44:24Z</time>
      </trkpt>
      <trkpt lat="47.32368" lon="6.91341">
        <ele>805.328</ele>
        <time>2015-08-15T09:44:27Z</time>
      </trkpt>
      <trkpt lat="47.3234" lon="6.91344">
        <ele>806.166</ele>
        <time>2015-08-15T09:44:36Z</time>
      </trkpt>
      <trkpt lat="47.32315" lon="6.91351">
        <ele>806.69</ele>
        <time>2015-08-15T09:44:44Z</time>
      </trkpt>
      <trkpt lat="47.32298" lon="6.91355">
        <ele>807.958</ele>
        <time>2015-08-15T09:44:49Z</time>
      </trkpt>
      <trkpt lat="47.32267" lon="6.91362">
        <ele>812.514</ele>
        <time>2015-08-15T09:44:57Z</time>
      </trkpt>
      <trkpt lat="47.32247" lon="6.91364">
        <ele>812.971</ele>
        <time>2015-08-15T09:45:03Z</time>
      </trkpt>
      <trkpt lat="47.3222" lon="6.9137">
        <ele>812.894</ele>
        <time>2015-08-15T09:45:10Z</time>
      </trkpt>
      <trkpt lat="47.32198" lon="6.91372">
        <ele>812.879</ele>
        <time>2015-08-15T09:45:16Z</time>
      </trkpt>
      <trkpt lat="47.32179" lon="6.91377">
        <ele>812.802</ele>
        <time>2015-08-15T09:45:22Z</time>
      </trkpt>
      <trkpt lat="47.32157" lon="6.91384">
        <ele>812.687</ele>
        <time>2015-08-15T09:45:29Z</time>
      </trkpt>
      <trkpt lat="47.32136" lon="6.91389">
        <ele>812.463</ele>
        <time>2015-08-15T09:45:35Z</time>
      </trkpt>
      <trkpt lat="47.32118" lon="6.91395">
        <ele>812.401</ele>
        <time>2015-08-15T09:45:40Z</time>
      </trkpt>
      <trkpt lat="47.32101" lon="6.91403">
        <ele>812.777</ele>
        <time>2015-08-15T09:45:45Z</time>
      </trkpt>
      <trkpt lat="47.32074" lon="6.91412">
        <ele>813.924</ele>
        <time>2015-08-15T09:45:53Z</time>
      </trkpt>
      <trkpt lat="47.3205" lon="6.91404">
        <ele>814.14</ele>
        <time>2015-08-15T09:46:00Z</time>
      </trkpt>
      <trkpt lat="47.32047" lon="6.91375">
        <ele>814.384</ele>
        <time>2015-08-15T09:46:05Z</time>
      </trkpt>
      <trkpt lat="47.32045" lon="6.91353">
        <ele>813.051</ele>
        <time>2015-08-15T09:46:08Z</time>
      </trkpt>
      <trkpt lat="47.32038" lon="6.91316">
        <ele>812.636</ele>
        <time>2015-08-15T09:46:14Z</time>
      </trkpt>
      <trkpt lat="47.32028" lon="6.91276">
        <ele>819.947</ele>
        <time>2015-08-15T09:46:20Z</time>
      </trkpt>
      <trkpt lat="47.32018" lon="6.91218">
        <ele>820.807</ele>
        <time>2015-08-15T09:46:27Z</time>
      </trkpt>
      <trkpt lat="47.32012" lon="6.91185">
        <ele>818.792</ele>
        <time>2015-08-15T09:46:32Z</time>
      </trkpt>
      <trkpt lat="47.32009" lon="6.91164">
        <ele>818.966</ele>
        <time>2015-08-15T09:46:35Z</time>
      </trkpt>
      <trkpt lat="47.32002" lon="6.91126">
        <ele>816.333</ele>
        <time>2015-08-15T09:46:40Z</time>
      </trkpt>
      <trkpt lat="47.31992" lon="6.91069">
        <ele>811.047</ele>
        <time>2015-08-15T09:46:47Z</time>
      </trkpt>
      <trkpt lat="47.31982" lon="6.91022">
        <ele>804.18</ele>
        <time>2015-08-15T09:46:53Z</time>
      </trkpt>
      <trkpt lat="47.31974" lon="6.90979">
        <ele>804.36</ele>
        <time>2015-08-15T09:46:59Z</time>
      </trkpt>
      <trkpt lat="47.31959" lon="6.90916">
        <ele>803.641</ele>
        <time>2015-08-15T09:47:08Z</time>
      </trkpt>
      <trkpt lat="47.31971" lon="6.90893">
        <ele>800.458</ele>
        <time>2015-08-15T09:47:14Z</time>
      </trkpt>
      <trkpt lat="47.31996" lon="6.90867">
        <ele>797.99</ele>
        <time>2015-08-15T09:47:21Z</time>
      </trkpt>
      <trkpt lat="47.32005" lon="6.90837">
        <ele>798.536</ele>
        <time>2015-08-15T09:47:27Z</time>
      </trkpt>
      <trkpt lat="47.32013" lon="6.90808">
        <ele>799.444</ele>
        <time>2015-08-15T09:47:34Z</time>
      </trkpt>
      <trkpt lat="47.3202" lon="6.9078">
        <ele>800.279</ele>
        <time>2015-08-15T09:47:40Z</time>
      </trkpt>
      <trkpt lat="47.32021" lon="6.90755">
        <ele>801.237</ele>
        <time>2015-08-15T09:47:46Z</time>
      </trkpt>
      <trkpt lat="47.32023" lon="6.90717">
        <ele>802.851</ele>
        <time>2015-08-15T09:47:54Z</time>
      </trkpt>
      <trkpt lat="47.3202" lon="6.90691">
        <ele>803.69</ele>
        <time>2015-08-15T09:48:00Z</time>
      </trkpt>
      <trkpt lat="47.32008" lon="6.90666">
        <ele>805.085</ele>
        <time>2015-08-15T09:48:09Z</time>
      </trkpt>
      <trkpt lat="47.31994" lon="6.90649">
        <ele>808.234</ele>
        <time>2015-08-15T09:48:18Z</time>
      </trkpt>
      <trkpt lat="47.31981" lon="6.9062">
        <ele>810.289</ele>
        <time>2015-08-15T09:48:29Z</time>
      </trkpt>
      <trkpt lat="47.31975" lon="6.90601">
        <ele>811.105</ele>
        <time>2015-08-15T09:48:36Z</time>
      </trkpt>
      <trkpt lat="47.31966" lon="6.90567">
        <ele>813.25</ele>
        <time>2015-08-15T09:48:47Z</time>
      </trkpt>
      <trkpt lat="47.3196" lon="6.90539">
        <ele>814.441</ele>
        <time>2015-08-15T09:48:55Z</time>
      </trkpt>
      <trkpt lat="47.31956" lon="6.90511">
        <ele>815.835</ele>
        <time>2015-08-15T09:49:04Z</time>
      </trkpt>
      <trkpt lat="47.3195" lon="6.90482">
        <ele>816.976</ele>
        <time>2015-08-15T09:49:12Z</time>
      </trkpt>
      <trkpt lat="47.31958" lon="6.90459">
        <ele>818.824</ele>
        <time>2015-08-15T09:49:22Z</time>
      </trkpt>
      <trkpt lat="47.31978" lon="6.90485">
        <ele>819.945</ele>
        <time>2015-08-15T09:49:33Z</time>
      </trkpt>
      <trkpt lat="47.31987" lon="6.90513">
        <ele>821.66</ele>
        <time>2015-08-15T09:49:42Z</time>
      </trkpt>
      <trkpt lat="47.32002" lon="6.90544">
        <ele>824.69</ele>
        <time>2015-08-15T09:49:53Z</time>
      </trkpt>
      <trkpt lat="47.32021" lon="6.90569">
        <ele>826.593</ele>
        <time>2015-08-15T09:50:03Z</time>
      </trkpt>
      <trkpt lat="47.3204" lon="6.90585">
        <ele>827.56</ele>
        <time>2015-08-15T09:50:12Z</time>
      </trkpt>
      <trkpt lat="47.32053" lon="6.90593">
        <ele>827.805</ele>
        <time>2015-08-15T09:50:17Z</time>
      </trkpt>
      <trkpt lat="47.3208" lon="6.90605">
        <ele>828.101</ele>
        <time>2015-08-15T09:50:26Z</time>
      </trkpt>
      <trkpt lat="47.32086" lon="6.90588">
        <ele>828.899</ele>
        <time>2015-08-15T09:50:32Z</time>
      </trkpt>
      <trkpt lat="47.3206" lon="6.90575">
        <ele>830.369</ele>
        <time>2015-08-15T09:50:40Z</time>
      </trkpt>
      <trkpt lat="47.3204" lon="6.90558">
        <ele>833.141</ele>
        <time>2015-08-15T09:50:47Z</time>
      </trkpt>
      <trkpt lat="47.32018" lon="6.90529">
        <ele>837.59</ele>
        <time>2015-08-15T09:50:54Z</time>
      </trkpt>
      <trkpt lat="47.32007" lon="6.90502">
        <ele>838.856</ele>
        <time>2015-08-15T09:50:59Z</time>
      </trkpt>
      <trkpt lat="47.31992" lon="6.90463">
        <ele>842.85</ele>
        <time>2015-08-15T09:51:05Z</time>
      </trkpt>
      <trkpt lat="47.31982" lon="6.90428">
        <ele>841.874</ele>
        <time>2015-08-15T09:51:10Z</time>
      </trkpt>
      <trkpt lat="47.31974" lon="6.90391">
        <ele>841.237</ele>
        <time>2015-08-15T09:51:16Z</time>
      </trkpt>
      <trkpt lat="47.31967" lon="6.90354">
        <ele>838.718</ele>
        <time>2015-08-15T09:51:22Z</time>
      </trkpt>
      <trkpt lat="47.31967" lon="6.90317">
        <ele>838.042</ele>
        <time>2015-08-15T09:51:28Z</time>
      </trkpt>
      <trkpt lat="47.31975" lon="6.90318">
        <ele>838.817</ele>
        <time>2015-08-15T09:51:39Z</time>
      </trkpt>
      <trkpt lat="47.31979" lon="6.90324">
        <ele>839.273</ele>
        <time>2015-08-15T09:51:44Z</time>
      </trkpt>
      <trkpt lat="47.31979" lon="6.90324">
        <ele>798.2</ele>
        <time>2015-08-15T09:51:51Z</time>
      </trkpt>
      <trkpt lat="47.31979" lon="6.90324">
        <ele>798.2</ele>
        <time>2015-08-15T09:52:18Z</time>
      </trkpt>
    </trkseg>
  </trk>
</gpx>